Darstellungsparameter: Aktuell verwendete Einstellungen:
Skalierung der Graphiken ... ?
xyx+y,   Skalierungsfaktor:      Skalierung: Modus: x, Faktor: 1
Darstellungszeitraum ... ?
Vom - - bis: - -   Zeitraum: 28.11.2014 - 03.12.2014
Min/Max/Avg-Anzeige ... ?
Zeige MMA aktuell
Zeige MMA Monat
Zeige MMA alles
Zeige --A aktuell
Zeige --A Monat
Zeige --A alles
Keine MMA-Anzeige
MMA:
Keine MMA-Graphiken
MMA-Basis: 28.11.2014 - 03.12.2014
Quicknavigation für Darstellung... ?
Tage:      1T, 2T, 3T, 5T -1T -2T -3T -5T +1T +2T +3T +5T
Wochen: 1W, 2W, 3W -1W -2W -3W +1W +2W +3W
Monate: 1M, 3M, 6M -1M -3M -6M +1M +3M +6M
Jahre:    1J, 3J, 5J, 10J -1J -3J -5J -10J +1J +3J +5J +10J
Nutze für die Darstellung ... ?
Originaldaten oder Mittelwerte auf ...
Stundenbasis Tagesbasis Wochenbasis
Monatsbasis Jahresbasis      Datenbasis: Original-Daten
Darstellen als:
Statistik (Auto) Statistik J:M      Darstellung:
Zur Graphik,    zurück zur Übersicht aller Sensoren.
 
Tabellarische Datenbersicht: ?
 
Sensor: Nr:Datum:Temp:Abs-Feuchte:Windchill:Wind:
Aussen-T/F 1 28-11-2014 00:00:00 5.8 C 6.81 g/m*3 5.8 C 0 km/h
2 28-11-2014 00:05:00 5.8 C 6.81 g/m*3 5.8 C 0 km/h
3 28-11-2014 00:10:00 5.8 C 6.81 g/m*3 5.8 C 1.6 km/h
4 28-11-2014 00:15:00 5.8 C 6.81 g/m*3 5.8 C 0 km/h
5 28-11-2014 00:20:00 5.8 C 6.81 g/m*3 5.8 C 0 km/h
6 28-11-2014 00:25:00 5.8 C 6.81 g/m*3 5.8 C 0 km/h
7 28-11-2014 00:30:00 5.8 C 6.81 g/m*3 5.8 C 0 km/h
8 28-11-2014 00:35:00 5.8 C 6.81 g/m*3 5.8 C 0 km/h
9 28-11-2014 00:40:00 5.8 C 6.81 g/m*3 5.8 C 0 km/h
10 28-11-2014 00:45:00 5.8 C 6.81 g/m*3 5.8 C 0 km/h
11 28-11-2014 00:50:00 5.8 C 6.81 g/m*3 5.8 C 0 km/h
12 28-11-2014 00:55:00 5.9 C 6.85 g/m*3 5.9 C 0 km/h
13 28-11-2014 01:00:00 5.9 C 6.85 g/m*3 5.9 C 0 km/h
14 28-11-2014 01:05:00 5.9 C 6.85 g/m*3 5.9 C 0 km/h
15 28-11-2014 01:10:00 5.9 C 6.85 g/m*3 5.9 C 0 km/h
16 28-11-2014 01:15:00 5.9 C 6.85 g/m*3 5.9 C 0 km/h
17 28-11-2014 01:20:00 5.9 C 6.85 g/m*3 5.9 C 0 km/h
18 28-11-2014 01:25:00 5.9 C 6.85 g/m*3 5.9 C 0 km/h
19 28-11-2014 01:30:00 5.9 C 6.85 g/m*3 5.9 C 0 km/h
20 28-11-2014 01:35:00 5.9 C 6.85 g/m*3 5.9 C 0 km/h
21 28-11-2014 01:40:00 5.9 C 6.85 g/m*3 5.9 C 1.6 km/h
22 28-11-2014 01:45:00 5.9 C 6.78 g/m*3 5.9 C 3.2 km/h
23 28-11-2014 01:50:00 5.9 C 6.78 g/m*3 5.9 C 1.6 km/h
24 28-11-2014 01:55:00 5.9 C 6.78 g/m*3 5.9 C 1.6 km/h
25 28-11-2014 02:00:00 5.9 C 6.78 g/m*3 5.9 C 0 km/h
Sensor: Nr:Datum:Temp:Abs-Feuchte:Windchill:Wind:
Aussen-T/F 26 28-11-2014 02:05:00 5.9 C 6.71 g/m*3 5.9 C 1.6 km/h
27 28-11-2014 02:10:00 5.9 C 6.71 g/m*3 5.9 C 1.6 km/h
28 28-11-2014 02:15:00 5.9 C 6.71 g/m*3 5.9 C 1.6 km/h
29 28-11-2014 02:20:00 5.8 C 6.66 g/m*3 5.8 C 0 km/h
30 28-11-2014 02:25:00 5.8 C 6.66 g/m*3 5.8 C 1.6 km/h
31 28-11-2014 02:30:00 5.7 C 6.62 g/m*3 5.7 C 0 km/h
32 28-11-2014 02:35:00 5.7 C 6.62 g/m*3 5.7 C 0 km/h
33 28-11-2014 02:40:00 5.5 C 6.53 g/m*3 5.5 C 1.6 km/h
34 28-11-2014 02:45:00 5.4 C 6.49 g/m*3 5.4 C 3.2 km/h
35 28-11-2014 02:50:00 5.3 C 6.45 g/m*3 5.3 C 3.2 km/h
36 28-11-2014 02:55:00 5.3 C 6.45 g/m*3 5.3 C 1.6 km/h
37 28-11-2014 03:00:00 5.2 C 6.4 g/m*3 5.2 C 1.6 km/h
38 28-11-2014 03:05:00 5.1 C 6.36 g/m*3 5.1 C 0 km/h
39 28-11-2014 03:10:00 5.1 C 6.43 g/m*3 5.1 C 0 km/h
40 28-11-2014 03:15:00 5.1 C 6.43 g/m*3 5.1 C 1.6 km/h
41 28-11-2014 03:20:00 5 C 6.39 g/m*3 5 C 0 km/h
42 28-11-2014 03:25:00 4.9 C 6.35 g/m*3 4.9 C 0 km/h
43 28-11-2014 03:30:00 4.9 C 6.35 g/m*3 4.9 C 0 km/h
44 28-11-2014 03:35:00 4.9 C 6.35 g/m*3 4.9 C 1.6 km/h
45 28-11-2014 03:40:00 4.9 C 6.35 g/m*3 4.9 C 0 km/h
46 28-11-2014 03:45:00 4.9 C 6.35 g/m*3 4.9 C 0 km/h
47 28-11-2014 03:50:00 4.9 C 6.35 g/m*3 4.9 C 0 km/h
48 28-11-2014 03:55:00 4.9 C 6.35 g/m*3 4.9 C 0 km/h
49 28-11-2014 04:00:00 4.9 C 6.35 g/m*3 4.9 C 0 km/h
50 28-11-2014 04:05:00 4.9 C 6.35 g/m*3 4.9 C 1.6 km/h
Sensor: Nr:Datum:Temp:Abs-Feuchte:Windchill:Wind:
Aussen-T/F 51 28-11-2014 04:10:00 4.9 C 6.35 g/m*3 4.9 C 0 km/h
52 28-11-2014 04:15:00 4.9 C 6.35 g/m*3 4.9 C 0 km/h
53 28-11-2014 04:20:00 4.9 C 6.35 g/m*3 4.9 C 0 km/h
54 28-11-2014 04:25:00 5 C 6.39 g/m*3 5 C 1.6 km/h
55 28-11-2014 04:30:00 4.9 C 6.35 g/m*3 4.9 C 3.2 km/h
56 28-11-2014 04:35:00 5 C 6.39 g/m*3 5 C 3.2 km/h
57 28-11-2014 04:40:00 5.1 C 6.43 g/m*3 5.1 C 0 km/h
58 28-11-2014 04:45:00 5.1 C 6.36 g/m*3 5.1 C 0 km/h
59 28-11-2014 04:50:00 5.1 C 6.36 g/m*3 5.1 C 0 km/h
60 28-11-2014 04:55:00 5.1 C 6.36 g/m*3 5.1 C 1.6 km/h
61 28-11-2014 05:00:00 5 C 6.32 g/m*3 5 C 0 km/h
62 28-11-2014 05:05:00 5 C 6.32 g/m*3 5 C 1.6 km/h
63 28-11-2014 05:10:00 4.9 C 6.28 g/m*3 4.9 C 0 km/h
64 28-11-2014 05:15:00 4.9 C 6.28 g/m*3 4.9 C 0 km/h
65 28-11-2014 05:20:00 4.9 C 6.35 g/m*3 4.9 C 1.6 km/h
66 28-11-2014 05:25:00 4.9 C 6.35 g/m*3 4.9 C 0 km/h
67 28-11-2014 05:30:00 4.9 C 6.35 g/m*3 4.9 C 0 km/h
68 28-11-2014 05:35:00 4.8 C 6.3 g/m*3 4.8 C 1.6 km/h
69 28-11-2014 05:40:00 4.8 C 6.3 g/m*3 4.8 C 0 km/h
70 28-11-2014 05:45:00 4.8 C 6.3 g/m*3 4.8 C 0 km/h
71 28-11-2014 05:50:00 4.8 C 6.3 g/m*3 4.8 C 1.6 km/h
72 28-11-2014 05:55:00 4.8 C 6.3 g/m*3 4.8 C 0 km/h
73 28-11-2014 06:00:00 4.8 C 6.3 g/m*3 4.8 C 1.6 km/h
74 28-11-2014 06:05:00 4.8 C 6.3 g/m*3 4.8 C 0 km/h
75 28-11-2014 06:10:00 4.8 C 6.3 g/m*3 4.8 C 0 km/h
Sensor: Nr:Datum:Temp:Abs-Feuchte:Windchill:Wind:
Aussen-T/F 76 28-11-2014 06:15:00 4.8 C 6.3 g/m*3 4.8 C 0 km/h
77 28-11-2014 06:20:00 4.8 C 6.3 g/m*3 4.8 C 0 km/h
78 28-11-2014 06:25:00 4.7 C 6.26 g/m*3 4.7 C 1.6 km/h
79 28-11-2014 06:30:00 4.7 C 6.26 g/m*3 4.7 C 3.2 km/h
80 28-11-2014 06:35:00 4.7 C 6.26 g/m*3 4.7 C 0 km/h
81 28-11-2014 06:40:00 4.7 C 6.19 g/m*3 4.7 C 1.6 km/h
82 28-11-2014 06:45:00 4.8 C 6.3 g/m*3 4.8 C 0 km/h
83 28-11-2014 06:50:00 4.7 C 6.19 g/m*3 4.7 C 3.2 km/h
84 28-11-2014 06:55:00 4.7 C 6.19 g/m*3 4.7 C 0 km/h
85 28-11-2014 07:00:00 4.8 C 6.24 g/m*3 4.8 C 0 km/h
86 28-11-2014 07:05:00 4.8 C 6.24 g/m*3 4.8 C 0 km/h
87 28-11-2014 07:10:00 4.8 C 6.24 g/m*3 4.8 C 0 km/h
88 28-11-2014 07:15:00 4.8 C 6.24 g/m*3 4.8 C 0 km/h
89 28-11-2014 07:20:00 4.8 C 6.24 g/m*3 4.8 C 0 km/h
90 28-11-2014 07:25:00 4.9 C 6.28 g/m*3 4.9 C 0 km/h
91 28-11-2014 07:30:00 4.9 C 6.28 g/m*3 4.9 C 3.2 km/h
92 28-11-2014 07:35:00 4.9 C 6.28 g/m*3 4.9 C 3.2 km/h
93 28-11-2014 07:40:00 4.9 C 6.28 g/m*3 4.9 C 3.2 km/h
94 28-11-2014 07:45:00 4.9 C 6.28 g/m*3 3.48 C 6.4 km/h
95 28-11-2014 07:50:00 4.9 C 6.21 g/m*3 4.9 C 4.8 km/h
96 28-11-2014 07:55:00 5 C 6.25 g/m*3 5 C 1.6 km/h
97 28-11-2014 08:00:00 5.1 C 6.29 g/m*3 5.1 C 1.6 km/h
98 28-11-2014 08:05:00 5.1 C 6.29 g/m*3 5.1 C 3.2 km/h
99 28-11-2014 08:10:00 5 C 6.25 g/m*3 5 C 1.6 km/h
100 28-11-2014 08:15:00 4.9 C 6.28 g/m*3 4.9 C 0 km/h
Sensor: Nr:Datum:Temp:Abs-Feuchte:Windchill:Wind:
Aussen-T/F 101 28-11-2014 08:20:00 4.9 C 6.28 g/m*3 4.9 C 1.6 km/h
102 28-11-2014 08:25:00 4.9 C 6.28 g/m*3 4.9 C 0 km/h
103 28-11-2014 08:30:00 4.8 C 6.24 g/m*3 4.8 C 1.6 km/h
104 28-11-2014 08:35:00 4.8 C 6.24 g/m*3 4.8 C 0 km/h
105 28-11-2014 08:40:00 4.9 C 6.35 g/m*3 4.9 C 3.2 km/h
106 28-11-2014 08:45:00 4.9 C 6.28 g/m*3 4.9 C 3.2 km/h
107 28-11-2014 08:50:00 5.1 C 6.36 g/m*3 5.1 C 1.6 km/h
108 28-11-2014 08:55:00 5.2 C 6.4 g/m*3 3.82 C 6.4 km/h
109 28-11-2014 09:00:00 5.2 C 6.4 g/m*3 5.2 C 3.2 km/h
110 28-11-2014 09:05:00 5.2 C 6.4 g/m*3 5.2 C 0 km/h
111 28-11-2014 09:25:00 5.6 C 6.43 g/m*3 4.29 C 6.4 km/h
112 28-11-2014 09:30:00 5.7 C 6.48 g/m*3 5.7 C 3.2 km/h
113 28-11-2014 09:35:00 5.7 C 6.4 g/m*3 5.7 C 1.6 km/h
114 28-11-2014 09:40:00 5.7 C 6.48 g/m*3 3.56 C 9.7 km/h
115 28-11-2014 09:45:00 5.7 C 6.48 g/m*3 4.4 C 6.4 km/h
116 28-11-2014 09:50:00 5.8 C 6.52 g/m*3 5.8 C 3.2 km/h
117 28-11-2014 09:55:00 5.8 C 6.52 g/m*3 5.8 C 4.8 km/h
118 28-11-2014 10:00:00 5.8 C 6.52 g/m*3 4.05 C 8.1 km/h
119 28-11-2014 10:05:00 5.9 C 6.56 g/m*3 5.9 C 1.6 km/h
120 28-11-2014 10:10:00 5.9 C 6.56 g/m*3 5.9 C 3.2 km/h
121 28-11-2014 10:15:00 6.1 C 6.65 g/m*3 4.4 C 8.1 km/h
122 28-11-2014 10:20:00 6.1 C 6.65 g/m*3 6.1 C 3.2 km/h
123 28-11-2014 10:25:00 6.2 C 6.62 g/m*3 6.2 C 4.8 km/h
124 28-11-2014 10:30:00 6.2 C 6.62 g/m*3 6.2 C 3.2 km/h
125 28-11-2014 10:35:00 6.2 C 6.69 g/m*3 4.15 C 9.7 km/h
Sensor: Nr:Datum:Temp:Abs-Feuchte:Windchill:Wind:
Aussen-T/F 126 28-11-2014 10:40:00 6.2 C 6.62 g/m*3 6.2 C 3.2 km/h
127 28-11-2014 10:45:00 6.2 C 6.62 g/m*3 6.2 C 4.8 km/h
128 28-11-2014 10:50:00 6.2 C 6.62 g/m*3 6.2 C 4.8 km/h
129 28-11-2014 10:55:00 6.2 C 6.62 g/m*3 4.98 C 6.4 km/h
130 28-11-2014 11:00:00 6.2 C 6.62 g/m*3 6.2 C 4.8 km/h
131 28-11-2014 11:05:00 6.2 C 6.62 g/m*3 4.15 C 9.7 km/h
132 28-11-2014 11:10:00 6.2 C 6.62 g/m*3 6.2 C 4.8 km/h
133 28-11-2014 11:15:00 6.2 C 6.55 g/m*3 6.2 C 3.2 km/h
134 28-11-2014 11:20:00 6.2 C 6.55 g/m*3 6.2 C 4.8 km/h
135 28-11-2014 11:25:00 6.2 C 6.62 g/m*3 6.2 C 4.8 km/h
136 28-11-2014 11:30:00 6.2 C 6.62 g/m*3 6.2 C 3.2 km/h
137 28-11-2014 11:35:00 6.2 C 6.62 g/m*3 6.2 C 4.8 km/h
138 28-11-2014 11:40:00 6.2 C 6.62 g/m*3 6.2 C 1.6 km/h
139 28-11-2014 11:45:00 6.2 C 6.62 g/m*3 6.2 C 3.2 km/h
140 28-11-2014 11:50:00 6.2 C 6.62 g/m*3 6.2 C 3.2 km/h
141 28-11-2014 12:10:00 6.5 C 7.5 g/m*3 5.33 C 6.4 km/h
142 28-11-2014 12:15:00 6.5 C 7.5 g/m*3 6.5 C 4.8 km/h
143 28-11-2014 16:10:00 5.6 C 6.36 g/m*3 3.81 C 8.1 km/h
144 28-11-2014 16:15:00 5.6 C 6.36 g/m*3 3.81 C 8.1 km/h
145 28-11-2014 16:20:00 5.6 C 6.36 g/m*3 3.11 C 11.3 km/h
146 28-11-2014 16:25:00 5.5 C 6.32 g/m*3 5.5 C 3.2 km/h
147 28-11-2014 16:30:00 5.5 C 6.32 g/m*3 5.5 C 3.2 km/h
148 28-11-2014 16:35:00 5.5 C 6.39 g/m*3 5.5 C 3.2 km/h
149 28-11-2014 16:40:00 5.5 C 6.32 g/m*3 5.5 C 3.2 km/h
150 28-11-2014 16:45:00 5.5 C 6.32 g/m*3 5.5 C 3.2 km/h
Sensor: Nr:Datum:Temp:Abs-Feuchte:Windchill:Wind:
Aussen-T/F 151 28-11-2014 16:50:00 5.5 C 6.32 g/m*3 5.5 C 3.2 km/h
152 28-11-2014 16:55:00 5.5 C 6.32 g/m*3 5.5 C 3.2 km/h
153 28-11-2014 17:00:00 5.5 C 6.32 g/m*3 5.5 C 1.6 km/h
154 28-11-2014 17:05:00 5.5 C 6.32 g/m*3 4.17 C 6.4 km/h
155 28-11-2014 17:10:00 5.5 C 6.32 g/m*3 4.17 C 6.4 km/h
156 28-11-2014 17:15:00 5.5 C 6.32 g/m*3 3.32 C 9.7 km/h
157 28-11-2014 17:20:00 5.5 C 6.32 g/m*3 5.5 C 3.2 km/h
158 28-11-2014 17:25:00 5.5 C 6.32 g/m*3 5.5 C 4.8 km/h
159 28-11-2014 17:30:00 5.5 C 6.32 g/m*3 4.17 C 6.4 km/h
160 28-11-2014 17:35:00 5.5 C 6.32 g/m*3 4.17 C 6.4 km/h
161 28-11-2014 17:40:00 5.5 C 6.32 g/m*3 5.5 C 3.2 km/h
162 28-11-2014 17:45:00 5.5 C 6.32 g/m*3 5.5 C 3.2 km/h
163 28-11-2014 17:50:00 5.5 C 6.39 g/m*3 5.5 C 3.2 km/h
164 28-11-2014 17:55:00 5.5 C 6.39 g/m*3 5.5 C 1.6 km/h
165 28-11-2014 18:00:00 5.5 C 6.39 g/m*3 5.5 C 1.6 km/h
166 28-11-2014 18:05:00 5.5 C 6.39 g/m*3 5.5 C 4.8 km/h
167 28-11-2014 18:10:00 5.5 C 6.39 g/m*3 5.5 C 1.6 km/h
168 28-11-2014 18:15:00 5.5 C 6.39 g/m*3 5.5 C 1.6 km/h
169 28-11-2014 18:20:00 5.5 C 6.32 g/m*3 5.5 C 4.8 km/h
170 28-11-2014 18:25:00 5.5 C 6.32 g/m*3 5.5 C 3.2 km/h
171 28-11-2014 18:30:00 5.4 C 6.28 g/m*3 5.4 C 3.2 km/h
172 28-11-2014 18:35:00 5.4 C 6.28 g/m*3 5.4 C 3.2 km/h
173 28-11-2014 18:40:00 5.4 C 6.28 g/m*3 5.4 C 3.2 km/h
174 28-11-2014 18:45:00 5.4 C 6.28 g/m*3 5.4 C 4.8 km/h
175 28-11-2014 18:50:00 5.4 C 6.28 g/m*3 5.4 C 4.8 km/h
Sensor: Nr:Datum:Temp:Abs-Feuchte:Windchill:Wind:
Aussen-T/F 176 28-11-2014 18:55:00 5.4 C 6.28 g/m*3 5.4 C 3.2 km/h
177 28-11-2014 19:00:00 5.4 C 6.28 g/m*3 5.4 C 1.6 km/h
178 28-11-2014 19:05:00 5.4 C 6.28 g/m*3 5.4 C 3.2 km/h
179 28-11-2014 19:10:00 5.4 C 6.28 g/m*3 5.4 C 3.2 km/h
180 28-11-2014 19:15:00 5.4 C 6.28 g/m*3 5.4 C 3.2 km/h
181 28-11-2014 19:20:00 5.4 C 6.28 g/m*3 5.4 C 1.6 km/h
182 28-11-2014 19:25:00 5.4 C 6.28 g/m*3 5.4 C 4.8 km/h
183 28-11-2014 19:30:00 5.4 C 6.28 g/m*3 4.06 C 6.4 km/h
184 28-11-2014 19:35:00 5.4 C 6.28 g/m*3 5.4 C 4.8 km/h
185 28-11-2014 19:40:00 5.4 C 6.28 g/m*3 5.4 C 4.8 km/h
186 28-11-2014 19:45:00 5.4 C 6.28 g/m*3 4.06 C 6.4 km/h
187 28-11-2014 19:50:00 5.4 C 6.28 g/m*3 5.4 C 4.8 km/h
188 28-11-2014 19:55:00 5.5 C 6.39 g/m*3 5.5 C 3.2 km/h
189 28-11-2014 20:00:00 5.5 C 6.32 g/m*3 5.5 C 3.2 km/h
190 28-11-2014 20:05:00 5.5 C 6.32 g/m*3 5.5 C 3.2 km/h
191 28-11-2014 20:10:00 5.5 C 6.32 g/m*3 5.5 C 1.6 km/h
192 28-11-2014 20:15:00 5.5 C 6.32 g/m*3 5.5 C 4.8 km/h
193 28-11-2014 20:20:00 5.6 C 6.36 g/m*3 5.6 C 1.6 km/h
194 28-11-2014 20:25:00 5.6 C 6.36 g/m*3 5.6 C 4.8 km/h
195 28-11-2014 20:30:00 5.6 C 6.36 g/m*3 5.6 C 3.2 km/h
196 28-11-2014 20:35:00 5.6 C 6.36 g/m*3 5.6 C 1.6 km/h
197 28-11-2014 20:40:00 5.6 C 6.36 g/m*3 5.6 C 3.2 km/h
198 28-11-2014 20:45:00 5.6 C 6.36 g/m*3 5.6 C 4.8 km/h
199 28-11-2014 20:50:00 5.6 C 6.36 g/m*3 5.6 C 3.2 km/h
200 28-11-2014 20:55:00 5.6 C 6.36 g/m*3 5.6 C 4.8 km/h
Sensor: Nr:Datum:Temp:Abs-Feuchte:Windchill:Wind:
Aussen-T/F 201 28-11-2014 21:00:00 5.6 C 6.36 g/m*3 5.6 C 4.8 km/h
202 28-11-2014 21:05:00 5.6 C 6.36 g/m*3 5.6 C 1.6 km/h
203 28-11-2014 21:10:00 5.6 C 6.36 g/m*3 5.6 C 3.2 km/h
204 28-11-2014 21:15:00 5.6 C 6.36 g/m*3 5.6 C 0 km/h
205 28-11-2014 21:20:00 5.6 C 6.36 g/m*3 5.6 C 3.2 km/h
206 28-11-2014 21:25:00 5.6 C 6.36 g/m*3 5.6 C 3.2 km/h
207 28-11-2014 21:30:00 5.6 C 6.43 g/m*3 5.6 C 3.2 km/h
208 28-11-2014 21:35:00 5.6 C 6.36 g/m*3 5.6 C 1.6 km/h
209 28-11-2014 21:40:00 5.5 C 6.32 g/m*3 5.5 C 1.6 km/h
210 28-11-2014 21:45:00 5.5 C 6.32 g/m*3 4.17 C 6.4 km/h
211 28-11-2014 21:50:00 5.5 C 6.32 g/m*3 5.5 C 3.2 km/h
212 28-11-2014 21:55:00 5.5 C 6.25 g/m*3 4.17 C 6.4 km/h
213 28-11-2014 22:00:00 5.5 C 6.32 g/m*3 4.17 C 6.4 km/h
214 28-11-2014 22:05:00 5.4 C 6.28 g/m*3 4.06 C 6.4 km/h
215 28-11-2014 22:10:00 5.4 C 6.28 g/m*3 5.4 C 1.6 km/h
216 28-11-2014 22:15:00 5.4 C 6.28 g/m*3 5.4 C 1.6 km/h
217 28-11-2014 22:20:00 5.4 C 6.28 g/m*3 5.4 C 3.2 km/h
218 28-11-2014 22:25:00 5.4 C 6.28 g/m*3 4.06 C 6.4 km/h
219 28-11-2014 22:30:00 5.4 C 6.28 g/m*3 5.4 C 4.8 km/h
220 28-11-2014 22:35:00 5.4 C 6.28 g/m*3 5.4 C 3.2 km/h
221 28-11-2014 22:40:00 5.4 C 6.28 g/m*3 5.4 C 4.8 km/h
222 28-11-2014 22:45:00 5.3 C 6.24 g/m*3 5.3 C 4.8 km/h
223 28-11-2014 22:50:00 5.3 C 6.24 g/m*3 5.3 C 3.2 km/h
224 28-11-2014 22:55:00 5.3 C 6.24 g/m*3 3.94 C 6.4 km/h
225 28-11-2014 23:00:00 5.3 C 6.24 g/m*3 3.08 C 9.7 km/h
Sensor: Nr:Datum:Temp:Abs-Feuchte:Windchill:Wind:
Aussen-T/F 226 28-11-2014 23:05:00 5.3 C 6.24 g/m*3 3.08 C 9.7 km/h
227 28-11-2014 23:10:00 5.3 C 6.24 g/m*3 3.46 C 8.1 km/h
228 28-11-2014 23:15:00 5.3 C 6.24 g/m*3 3.46 C 8.1 km/h
229 28-11-2014 23:20:00 5.3 C 6.24 g/m*3 5.3 C 3.2 km/h
230 28-11-2014 23:25:00 5.3 C 6.17 g/m*3 5.3 C 1.6 km/h
231 28-11-2014 23:30:00 5.3 C 6.17 g/m*3 3.08 C 9.7 km/h
232 28-11-2014 23:35:00 5.3 C 6.24 g/m*3 5.3 C 3.2 km/h
233 28-11-2014 23:40:00 5.3 C 6.17 g/m*3 5.3 C 0 km/h
234 28-11-2014 23:45:00 5.2 C 6.2 g/m*3 5.2 C 4.8 km/h
235 28-11-2014 23:50:00 5.2 C 6.2 g/m*3 3.82 C 6.4 km/h
236 28-11-2014 23:55:00 5.2 C 6.2 g/m*3 5.2 C 1.6 km/h
237 29-11-2014 00:00:00 5.2 C 6.2 g/m*3 5.2 C 4.8 km/h
238 29-11-2014 00:05:00 5.2 C 6.2 g/m*3 5.2 C 3.2 km/h
239 29-11-2014 00:10:00 5.2 C 6.2 g/m*3 5.2 C 3.2 km/h
240 29-11-2014 00:15:00 5.2 C 6.2 g/m*3 5.2 C 0 km/h
241 29-11-2014 00:20:00 5.1 C 6.16 g/m*3 5.1 C 4.8 km/h
242 29-11-2014 00:25:00 5.1 C 6.16 g/m*3 5.1 C 3.2 km/h
243 29-11-2014 00:30:00 5.1 C 6.16 g/m*3 3.23 C 8.1 km/h
244 29-11-2014 00:35:00 5.1 C 6.16 g/m*3 5.1 C 4.8 km/h
245 29-11-2014 00:40:00 5.1 C 6.16 g/m*3 3.23 C 8.1 km/h
246 29-11-2014 00:45:00 5.1 C 6.16 g/m*3 5.1 C 3.2 km/h
247 29-11-2014 00:50:00 5 C 6.12 g/m*3 3.59 C 6.4 km/h
248 29-11-2014 00:55:00 5 C 6.12 g/m*3 5 C 4.8 km/h
249 29-11-2014 01:00:00 5 C 6.12 g/m*3 3.59 C 6.4 km/h
250 29-11-2014 01:05:00 5 C 6.12 g/m*3 3.11 C 8.1 km/h
Sensor: Nr:Datum:Temp:Abs-Feuchte:Windchill:Wind:
Aussen-T/F 251 29-11-2014 01:10:00 5 C 6.12 g/m*3 3.59 C 6.4 km/h
252 29-11-2014 01:15:00 5 C 6.12 g/m*3 5 C 1.6 km/h
253 29-11-2014 01:20:00 5 C 6.12 g/m*3 5 C 3.2 km/h
254 29-11-2014 01:25:00 4.9 C 6.08 g/m*3 4.9 C 4.8 km/h
255 29-11-2014 01:30:00 4.9 C 6.08 g/m*3 4.9 C 3.2 km/h
256 29-11-2014 01:35:00 4.9 C 6.08 g/m*3 3.48 C 6.4 km/h
257 29-11-2014 01:40:00 4.9 C 6.08 g/m*3 4.9 C 0 km/h
258 29-11-2014 01:45:00 4.9 C 6.08 g/m*3 4.9 C 4.8 km/h
259 29-11-2014 01:50:00 4.9 C 6.08 g/m*3 3.48 C 6.4 km/h
260 29-11-2014 01:55:00 4.9 C 6.08 g/m*3 2.99 C 8.1 km/h
261 29-11-2014 02:00:00 4.8 C 5.97 g/m*3 4.8 C 3.2 km/h
262 29-11-2014 02:05:00 4.8 C 5.97 g/m*3 4.8 C 4.8 km/h
263 29-11-2014 02:10:00 4.8 C 5.97 g/m*3 4.8 C 4.8 km/h
264 29-11-2014 02:15:00 4.8 C 6.04 g/m*3 2.49 C 9.7 km/h
265 29-11-2014 02:20:00 4.8 C 6.04 g/m*3 3.36 C 6.4 km/h
266 29-11-2014 02:25:00 4.7 C 5.93 g/m*3 4.7 C 3.2 km/h
267 29-11-2014 02:30:00 4.7 C 5.93 g/m*3 4.7 C 3.2 km/h
268 29-11-2014 02:35:00 4.8 C 5.97 g/m*3 3.36 C 6.4 km/h
269 29-11-2014 02:40:00 4.7 C 5.93 g/m*3 4.7 C 4.8 km/h
270 29-11-2014 02:45:00 4.8 C 5.97 g/m*3 3.36 C 6.4 km/h
271 29-11-2014 02:50:00 4.7 C 5.93 g/m*3 4.7 C 3.2 km/h
272 29-11-2014 02:55:00 4.7 C 6 g/m*3 4.7 C 4.8 km/h
273 29-11-2014 03:00:00 4.7 C 6 g/m*3 4.7 C 4.8 km/h
274 29-11-2014 03:05:00 4.6 C 5.89 g/m*3 3.13 C 6.4 km/h
275 29-11-2014 03:10:00 4.6 C 5.96 g/m*3 2.64 C 8.1 km/h
Sensor: Nr:Datum:Temp:Abs-Feuchte:Windchill:Wind:
Aussen-T/F 276 29-11-2014 03:15:00 4.6 C 5.89 g/m*3 4.6 C 3.2 km/h
277 29-11-2014 03:20:00 4.6 C 5.96 g/m*3 3.13 C 6.4 km/h
278 29-11-2014 03:25:00 4.6 C 5.96 g/m*3 3.13 C 6.4 km/h
279 29-11-2014 03:30:00 4.5 C 5.85 g/m*3 3.02 C 6.4 km/h
280 29-11-2014 03:35:00 4.5 C 5.85 g/m*3 4.5 C 1.6 km/h
281 29-11-2014 03:40:00 4.5 C 5.85 g/m*3 4.5 C 1.6 km/h
282 29-11-2014 03:45:00 4.5 C 5.85 g/m*3 3.02 C 6.4 km/h
283 29-11-2014 03:50:00 4.5 C 5.92 g/m*3 4.5 C 4.8 km/h
284 29-11-2014 03:55:00 4.4 C 5.88 g/m*3 4.4 C 0 km/h
285 29-11-2014 04:00:00 4.4 C 5.88 g/m*3 4.4 C 0 km/h
286 29-11-2014 04:05:00 4.4 C 5.88 g/m*3 4.4 C 3.2 km/h
287 29-11-2014 04:10:00 4.4 C 5.88 g/m*3 4.4 C 0 km/h
288 29-11-2014 04:15:00 4.4 C 5.88 g/m*3 4.4 C 1.6 km/h
289 29-11-2014 04:20:00 4.4 C 5.88 g/m*3 4.4 C 0 km/h
290 29-11-2014 04:25:00 4.5 C 5.92 g/m*3 4.5 C 3.2 km/h
291 29-11-2014 04:30:00 4.5 C 5.92 g/m*3 4.5 C 1.6 km/h
292 29-11-2014 04:35:00 4.4 C 5.88 g/m*3 4.4 C 0 km/h
293 29-11-2014 04:40:00 4.5 C 5.92 g/m*3 4.5 C 1.6 km/h
294 29-11-2014 04:45:00 4.5 C 5.92 g/m*3 4.5 C 4.8 km/h
295 29-11-2014 04:50:00 4.4 C 5.81 g/m*3 4.4 C 3.2 km/h
296 29-11-2014 04:55:00 4.4 C 5.81 g/m*3 4.4 C 1.6 km/h
297 29-11-2014 05:00:00 4.4 C 5.81 g/m*3 4.4 C 3.2 km/h
298 29-11-2014 05:05:00 4.4 C 5.81 g/m*3 4.4 C 0 km/h
299 29-11-2014 05:10:00 4.4 C 5.81 g/m*3 4.4 C 3.2 km/h
300 29-11-2014 05:15:00 4.4 C 5.81 g/m*3 4.4 C 3.2 km/h
Sensor: Nr:Datum:Temp:Abs-Feuchte:Windchill:Wind:
Aussen-T/F 301 29-11-2014 05:20:00 4.4 C 5.81 g/m*3 4.4 C 1.6 km/h
302 29-11-2014 05:25:00 4.4 C 5.81 g/m*3 4.4 C 4.8 km/h
303 29-11-2014 05:30:00 4.4 C 5.81 g/m*3 4.4 C 1.6 km/h
304 29-11-2014 05:35:00 4.4 C 5.81 g/m*3 2.9 C 6.4 km/h
305 29-11-2014 05:40:00 4.4 C 5.81 g/m*3 4.4 C 3.2 km/h
306 29-11-2014 05:45:00 4.3 C 5.77 g/m*3 4.3 C 3.2 km/h
307 29-11-2014 05:50:00 4.3 C 5.77 g/m*3 4.3 C 1.6 km/h
308 29-11-2014 05:55:00 4.3 C 5.77 g/m*3 4.3 C 1.6 km/h
309 29-11-2014 06:00:00 4.3 C 5.77 g/m*3 4.3 C 3.2 km/h
310 29-11-2014 06:05:00 4.3 C 5.77 g/m*3 4.3 C 4.8 km/h
311 29-11-2014 06:10:00 4.3 C 5.84 g/m*3 4.3 C 4.8 km/h
312 29-11-2014 06:15:00 4.3 C 5.84 g/m*3 4.3 C 3.2 km/h
313 29-11-2014 06:20:00 4.3 C 5.84 g/m*3 4.3 C 3.2 km/h
314 29-11-2014 06:25:00 4.3 C 5.77 g/m*3 4.3 C 0 km/h
315 29-11-2014 06:30:00 4.3 C 5.84 g/m*3 4.3 C 1.6 km/h
316 29-11-2014 06:35:00 4.3 C 5.84 g/m*3 4.3 C 4.8 km/h
317 29-11-2014 06:40:00 4.2 C 5.73 g/m*3 4.2 C 1.6 km/h
318 29-11-2014 06:45:00 4.2 C 5.8 g/m*3 4.2 C 1.6 km/h
319 29-11-2014 06:50:00 4.3 C 5.84 g/m*3 4.3 C 4.8 km/h
320 29-11-2014 06:55:00 4.3 C 5.84 g/m*3 4.3 C 3.2 km/h
321 29-11-2014 07:00:00 4.2 C 5.8 g/m*3 4.2 C 1.6 km/h
322 29-11-2014 07:05:00 4.2 C 5.8 g/m*3 4.2 C 3.2 km/h
323 29-11-2014 07:10:00 4.2 C 5.8 g/m*3 4.2 C 3.2 km/h
324 29-11-2014 07:15:00 4.2 C 5.8 g/m*3 4.2 C 4.8 km/h
325 29-11-2014 07:20:00 4.2 C 5.8 g/m*3 4.2 C 1.6 km/h
Sensor: Nr:Datum:Temp:Abs-Feuchte:Windchill:Wind:
Aussen-T/F 326 29-11-2014 07:25:00 4.2 C 5.8 g/m*3 4.2 C 3.2 km/h
327 29-11-2014 07:30:00 4.2 C 5.8 g/m*3 4.2 C 0 km/h
328 29-11-2014 07:35:00 4.2 C 5.8 g/m*3 4.2 C 1.6 km/h
329 29-11-2014 07:40:00 4.2 C 5.8 g/m*3 4.2 C 1.6 km/h
330 29-11-2014 07:45:00 4.2 C 5.8 g/m*3 4.2 C 3.2 km/h
331 29-11-2014 07:50:00 4.1 C 5.76 g/m*3 4.1 C 3.2 km/h
332 29-11-2014 07:55:00 4.1 C 5.76 g/m*3 4.1 C 3.2 km/h
333 29-11-2014 08:00:00 4.1 C 5.76 g/m*3 4.1 C 4.8 km/h
334 29-11-2014 08:05:00 4.1 C 5.76 g/m*3 4.1 C 4.8 km/h
335 29-11-2014 08:10:00 4.1 C 5.76 g/m*3 4.1 C 4.8 km/h
336 29-11-2014 08:15:00 4.1 C 5.76 g/m*3 2.55 C 6.4 km/h
337 29-11-2014 08:20:00 4.1 C 5.76 g/m*3 4.1 C 3.2 km/h
338 29-11-2014 08:40:00 4.2 C 5.8 g/m*3 4.2 C 3.2 km/h
339 29-11-2014 08:45:00 4.1 C 5.76 g/m*3 4.1 C 1.6 km/h
340 29-11-2014 08:50:00 4.2 C 5.8 g/m*3 4.2 C 3.2 km/h
341 29-11-2014 08:55:00 4.2 C 5.8 g/m*3 4.2 C 0 km/h
342 29-11-2014 09:00:00 4.2 C 5.8 g/m*3 4.2 C 1.6 km/h
343 29-11-2014 09:05:00 4.2 C 5.8 g/m*3 4.2 C 1.6 km/h
344 29-11-2014 09:10:00 4.2 C 5.8 g/m*3 2.67 C 6.4 km/h
345 29-11-2014 09:15:00 4.2 C 5.73 g/m*3 4.2 C 4.8 km/h
346 29-11-2014 09:20:00 4.2 C 5.8 g/m*3 4.2 C 3.2 km/h
347 29-11-2014 09:25:00 4.2 C 5.8 g/m*3 4.2 C 0 km/h
348 29-11-2014 09:30:00 4.2 C 5.8 g/m*3 2.67 C 6.4 km/h
349 29-11-2014 09:35:00 4.2 C 5.8 g/m*3 1.77 C 9.7 km/h
350 29-11-2014 09:40:00 4.2 C 5.8 g/m*3 4.2 C 4.8 km/h
Sensor: Nr:Datum:Temp:Abs-Feuchte:Windchill:Wind:
Aussen-T/F 351 29-11-2014 09:45:00 4.2 C 5.8 g/m*3 4.2 C 3.2 km/h
352 29-11-2014 09:50:00 4.2 C 5.73 g/m*3 4.2 C 1.6 km/h
353 29-11-2014 09:55:00 4.2 C 5.73 g/m*3 2.67 C 6.4 km/h
354 29-11-2014 10:00:00 4.2 C 5.73 g/m*3 4.2 C 1.6 km/h
355 29-11-2014 10:05:00 4.2 C 5.73 g/m*3 4.2 C 4.8 km/h
356 29-11-2014 10:10:00 4.2 C 5.73 g/m*3 2.67 C 6.4 km/h
357 29-11-2014 10:15:00 4.2 C 5.8 g/m*3 2.67 C 6.4 km/h
358 29-11-2014 10:20:00 4.2 C 5.73 g/m*3 4.2 C 3.2 km/h
359 29-11-2014 10:25:00 4.2 C 5.73 g/m*3 4.2 C 4.8 km/h
360 29-11-2014 10:30:00 4.2 C 5.73 g/m*3 4.2 C 4.8 km/h
361 29-11-2014 10:35:00 4.3 C 5.77 g/m*3 2.29 C 8.1 km/h
362 29-11-2014 10:40:00 4.3 C 5.77 g/m*3 2.78 C 6.4 km/h
363 29-11-2014 10:45:00 4.2 C 5.73 g/m*3 2.67 C 6.4 km/h
364 29-11-2014 10:50:00 4.3 C 5.77 g/m*3 2.78 C 6.4 km/h
365 29-11-2014 10:55:00 4.3 C 5.77 g/m*3 4.3 C 1.6 km/h
366 29-11-2014 11:00:00 4.3 C 5.77 g/m*3 4.3 C 4.8 km/h
367 29-11-2014 11:05:00 4.3 C 5.77 g/m*3 2.78 C 6.4 km/h
368 29-11-2014 11:10:00 4.3 C 5.77 g/m*3 2.78 C 6.4 km/h
369 29-11-2014 11:15:00 4.4 C 5.81 g/m*3 4.4 C 3.2 km/h
370 29-11-2014 11:20:00 4.4 C 5.81 g/m*3 4.4 C 4.8 km/h
371 29-11-2014 11:25:00 4.4 C 5.81 g/m*3 4.4 C 1.6 km/h
372 29-11-2014 11:30:00 4.4 C 5.81 g/m*3 2.9 C 6.4 km/h
373 29-11-2014 11:35:00 4.4 C 5.81 g/m*3 2.9 C 6.4 km/h
374 29-11-2014 11:40:00 4.5 C 5.85 g/m*3 4.5 C 4.8 km/h
375 29-11-2014 11:45:00 4.5 C 5.85 g/m*3 4.5 C 4.8 km/h
Sensor: Nr:Datum:Temp:Abs-Feuchte:Windchill:Wind:
Aussen-T/F 376 29-11-2014 11:50:00 4.5 C 5.78 g/m*3 4.5 C 4.8 km/h
377 29-11-2014 11:55:00 4.6 C 5.89 g/m*3 4.6 C 3.2 km/h
378 29-11-2014 12:00:00 4.6 C 5.89 g/m*3 2.25 C 9.7 km/h
379 29-11-2014 12:05:00 4.6 C 5.82 g/m*3 3.13 C 6.4 km/h
380 29-11-2014 12:10:00 4.6 C 5.82 g/m*3 4.6 C 0 km/h
381 29-11-2014 12:15:00 4.6 C 5.89 g/m*3 4.6 C 3.2 km/h
382 29-11-2014 12:20:00 4.7 C 5.86 g/m*3 4.7 C 0 km/h
383 29-11-2014 12:25:00 4.7 C 5.86 g/m*3 4.7 C 1.6 km/h
384 29-11-2014 12:30:00 4.7 C 5.86 g/m*3 4.7 C 1.6 km/h
385 29-11-2014 12:35:00 4.7 C 5.86 g/m*3 4.7 C 0 km/h
386 29-11-2014 12:40:00 4.7 C 5.86 g/m*3 4.7 C 3.2 km/h
387 29-11-2014 12:45:00 4.7 C 5.86 g/m*3 3.25 C 6.4 km/h
388 29-11-2014 12:50:00 4.7 C 5.86 g/m*3 4.7 C 4.8 km/h
389 29-11-2014 12:55:00 4.7 C 5.86 g/m*3 4.7 C 3.2 km/h
390 29-11-2014 13:00:00 4.7 C 5.86 g/m*3 4.7 C 1.6 km/h
391 29-11-2014 13:05:00 4.7 C 5.86 g/m*3 4.7 C 4.8 km/h
392 29-11-2014 13:10:00 4.8 C 5.97 g/m*3 4.8 C 4.8 km/h
393 29-11-2014 13:15:00 4.8 C 5.9 g/m*3 3.36 C 6.4 km/h
394 29-11-2014 13:20:00 4.8 C 5.9 g/m*3 4.8 C 1.6 km/h
395 29-11-2014 13:25:00 4.8 C 5.9 g/m*3 4.8 C 3.2 km/h
396 29-11-2014 13:30:00 4.8 C 5.9 g/m*3 3.36 C 6.4 km/h
397 29-11-2014 13:35:00 4.8 C 5.9 g/m*3 4.8 C 4.8 km/h
398 29-11-2014 13:40:00 4.8 C 5.9 g/m*3 4.8 C 3.2 km/h
399 29-11-2014 13:45:00 4.8 C 5.9 g/m*3 4.8 C 1.6 km/h
400 29-11-2014 13:50:00 4.8 C 5.9 g/m*3 4.8 C 3.2 km/h
Sensor: Nr:Datum:Temp:Abs-Feuchte:Windchill:Wind:
Aussen-T/F 401 29-11-2014 13:55:00 4.8 C 5.83 g/m*3 4.8 C 4.8 km/h
402 29-11-2014 14:00:00 4.8 C 5.9 g/m*3 4.8 C 3.2 km/h
403 29-11-2014 14:05:00 4.8 C 5.9 g/m*3 4.8 C 1.6 km/h
404 29-11-2014 14:10:00 4.8 C 5.9 g/m*3 4.8 C 3.2 km/h
405 29-11-2014 14:15:00 4.8 C 5.9 g/m*3 4.8 C 4.8 km/h
406 29-11-2014 14:20:00 4.8 C 5.9 g/m*3 4.8 C 3.2 km/h
407 29-11-2014 14:25:00 4.8 C 5.9 g/m*3 4.8 C 3.2 km/h
408 29-11-2014 14:30:00 4.8 C 5.9 g/m*3 4.8 C 4.8 km/h
409 29-11-2014 14:35:00 4.8 C 5.9 g/m*3 4.8 C 1.6 km/h
410 29-11-2014 14:40:00 4.8 C 5.9 g/m*3 4.8 C 4.8 km/h
411 29-11-2014 14:45:00 4.8 C 5.97 g/m*3 4.8 C 4.8 km/h
412 29-11-2014 14:50:00 4.8 C 5.9 g/m*3 2.15 C 11.3 km/h
413 29-11-2014 14:55:00 4.7 C 5.86 g/m*3 4.7 C 3.2 km/h
414 29-11-2014 15:00:00 4.7 C 5.86 g/m*3 3.25 C 6.4 km/h
415 29-11-2014 15:05:00 4.7 C 5.93 g/m*3 4.7 C 3.2 km/h
416 29-11-2014 15:10:00 4.7 C 5.93 g/m*3 4.7 C 4.8 km/h
417 29-11-2014 15:15:00 4.7 C 5.93 g/m*3 4.7 C 3.2 km/h
418 29-11-2014 15:20:00 4.7 C 5.93 g/m*3 4.7 C 1.6 km/h
419 29-11-2014 15:25:00 4.7 C 5.86 g/m*3 4.7 C 1.6 km/h
420 29-11-2014 15:30:00 4.7 C 5.93 g/m*3 4.7 C 3.2 km/h
421 29-11-2014 15:35:00 4.7 C 5.93 g/m*3 4.7 C 1.6 km/h
422 29-11-2014 15:40:00 4.7 C 5.93 g/m*3 4.7 C 1.6 km/h
423 29-11-2014 15:45:00 4.7 C 5.93 g/m*3 4.7 C 0 km/h
424 29-11-2014 15:50:00 4.7 C 5.93 g/m*3 4.7 C 1.6 km/h
425 29-11-2014 15:55:00 4.7 C 5.93 g/m*3 4.7 C 3.2 km/h
Sensor: Nr:Datum:Temp:Abs-Feuchte:Windchill:Wind:
Aussen-T/F 426 29-11-2014 16:00:00 4.7 C 5.93 g/m*3 4.7 C 3.2 km/h
427 29-11-2014 16:05:00 4.7 C 5.93 g/m*3 4.7 C 1.6 km/h
428 29-11-2014 16:10:00 4.6 C 5.89 g/m*3 4.6 C 1.6 km/h
429 29-11-2014 16:15:00 4.6 C 5.89 g/m*3 4.6 C 0 km/h
430 29-11-2014 16:20:00 4.6 C 5.89 g/m*3 4.6 C 3.2 km/h
431 29-11-2014 16:25:00 4.6 C 5.89 g/m*3 4.6 C 3.2 km/h
432 29-11-2014 16:30:00 4.6 C 5.96 g/m*3 4.6 C 4.8 km/h
433 29-11-2014 16:35:00 4.6 C 5.96 g/m*3 4.6 C 3.2 km/h
434 29-11-2014 16:40:00 4.6 C 5.96 g/m*3 4.6 C 1.6 km/h
435 29-11-2014 16:45:00 4.6 C 5.96 g/m*3 4.6 C 3.2 km/h
436 29-11-2014 16:50:00 4.6 C 5.96 g/m*3 4.6 C 0 km/h
437 29-11-2014 16:55:00 4.6 C 5.96 g/m*3 4.6 C 0 km/h
438 29-11-2014 17:00:00 4.6 C 5.96 g/m*3 4.6 C 0 km/h
439 29-11-2014 17:05:00 4.6 C 5.96 g/m*3 4.6 C 0 km/h
440 29-11-2014 17:10:00 4.6 C 5.96 g/m*3 4.6 C 0 km/h
441 29-11-2014 17:15:00 4.6 C 5.96 g/m*3 4.6 C 0 km/h
442 29-11-2014 17:20:00 4.6 C 5.96 g/m*3 4.6 C 0 km/h
443 29-11-2014 17:25:00 4.6 C 5.96 g/m*3 4.6 C 0 km/h
444 29-11-2014 17:30:00 4.6 C 5.96 g/m*3 4.6 C 0 km/h
445 29-11-2014 17:35:00 4.6 C 5.96 g/m*3 4.6 C 0 km/h
446 29-11-2014 17:40:00 4.6 C 5.96 g/m*3 4.6 C 1.6 km/h
447 29-11-2014 17:45:00 4.6 C 5.96 g/m*3 4.6 C 3.2 km/h
448 29-11-2014 17:50:00 4.5 C 5.85 g/m*3 4.5 C 3.2 km/h
449 29-11-2014 17:55:00 4.5 C 5.85 g/m*3 4.5 C 1.6 km/h
450 29-11-2014 18:00:00 4.5 C 5.92 g/m*3 4.5 C 1.6 km/h
Sensor: Nr:Datum:Temp:Abs-Feuchte:Windchill:Wind:
Aussen-T/F 451 29-11-2014 18:05:00 4.5 C 5.85 g/m*3 4.5 C 1.6 km/h
452 29-11-2014 18:10:00 4.5 C 5.85 g/m*3 4.5 C 0 km/h
453 29-11-2014 18:15:00 4.5 C 5.85 g/m*3 4.5 C 1.6 km/h
454 29-11-2014 18:20:00 4.5 C 5.85 g/m*3 4.5 C 3.2 km/h
455 29-11-2014 18:25:00 4.5 C 5.85 g/m*3 4.5 C 1.6 km/h
456 29-11-2014 18:30:00 4.5 C 5.85 g/m*3 4.5 C 4.8 km/h
457 29-11-2014 18:35:00 4.4 C 5.81 g/m*3 4.4 C 1.6 km/h
458 29-11-2014 18:40:00 4.4 C 5.81 g/m*3 4.4 C 4.8 km/h
459 29-11-2014 18:45:00 4.4 C 5.81 g/m*3 2.9 C 6.4 km/h
460 29-11-2014 18:50:00 4.4 C 5.81 g/m*3 4.4 C 0 km/h
461 29-11-2014 18:55:00 4.3 C 5.77 g/m*3 4.3 C 1.6 km/h
462 29-11-2014 19:00:00 4.3 C 5.77 g/m*3 4.3 C 0 km/h
463 29-11-2014 19:05:00 4.3 C 5.77 g/m*3 4.3 C 1.6 km/h
464 29-11-2014 19:10:00 4.3 C 5.77 g/m*3 4.3 C 1.6 km/h
465 29-11-2014 19:15:00 4.3 C 5.77 g/m*3 4.3 C 0 km/h
466 29-11-2014 19:20:00 4.3 C 5.77 g/m*3 4.3 C 1.6 km/h
467 29-11-2014 19:25:00 4.3 C 5.77 g/m*3 4.3 C 3.2 km/h
468 29-11-2014 19:30:00 4.3 C 5.77 g/m*3 4.3 C 1.6 km/h
469 29-11-2014 19:35:00 4.3 C 5.84 g/m*3 4.3 C 4.8 km/h
470 29-11-2014 19:40:00 4.3 C 5.84 g/m*3 4.3 C 4.8 km/h
471 29-11-2014 19:45:00 4.3 C 5.84 g/m*3 4.3 C 4.8 km/h
472 29-11-2014 19:50:00 4.3 C 5.84 g/m*3 4.3 C 1.6 km/h
473 29-11-2014 19:55:00 4.3 C 5.84 g/m*3 4.3 C 0 km/h
474 29-11-2014 20:00:00 4.3 C 5.84 g/m*3 4.3 C 1.6 km/h
475 29-11-2014 20:05:00 4.3 C 5.84 g/m*3 4.3 C 1.6 km/h
Sensor: Nr:Datum:Temp:Abs-Feuchte:Windchill:Wind:
Aussen-T/F 476 29-11-2014 20:10:00 4.3 C 5.84 g/m*3 4.3 C 1.6 km/h
477 29-11-2014 20:15:00 4.2 C 5.8 g/m*3 4.2 C 4.8 km/h
478 29-11-2014 20:20:00 4.2 C 5.8 g/m*3 4.2 C 3.2 km/h
479 29-11-2014 20:25:00 4.3 C 5.84 g/m*3 4.3 C 0 km/h
480 29-11-2014 20:30:00 4.3 C 5.84 g/m*3 4.3 C 1.6 km/h
481 29-11-2014 20:35:00 4.3 C 5.84 g/m*3 4.3 C 3.2 km/h
482 29-11-2014 20:40:00 4.3 C 5.84 g/m*3 4.3 C 3.2 km/h
483 29-11-2014 20:45:00 4.2 C 5.8 g/m*3 4.2 C 3.2 km/h
484 29-11-2014 20:50:00 4.2 C 5.8 g/m*3 2.67 C 6.4 km/h
485 29-11-2014 20:55:00 4.2 C 5.8 g/m*3 2.17 C 8.1 km/h
486 29-11-2014 21:00:00 4.2 C 5.8 g/m*3 4.2 C 3.2 km/h
487 29-11-2014 21:05:00 4.2 C 5.8 g/m*3 4.2 C 3.2 km/h
488 29-11-2014 21:10:00 4.2 C 5.8 g/m*3 4.2 C 3.2 km/h
489 29-11-2014 21:15:00 4.2 C 5.8 g/m*3 4.2 C 0 km/h
490 29-11-2014 21:20:00 4.2 C 5.8 g/m*3 4.2 C 1.6 km/h
491 29-11-2014 21:25:00 4.2 C 5.8 g/m*3 4.2 C 4.8 km/h
492 29-11-2014 21:30:00 4.2 C 5.8 g/m*3 4.2 C 0 km/h
493 29-11-2014 21:35:00 4.2 C 5.8 g/m*3 4.2 C 1.6 km/h
494 29-11-2014 21:40:00 4.2 C 5.8 g/m*3 2.67 C 6.4 km/h
495 29-11-2014 21:45:00 4.1 C 5.76 g/m*3 4.1 C 4.8 km/h
496 29-11-2014 21:50:00 4.1 C 5.76 g/m*3 4.1 C 1.6 km/h
497 29-11-2014 21:55:00 4.1 C 5.76 g/m*3 4.1 C 1.6 km/h
498 29-11-2014 22:00:00 4.1 C 5.76 g/m*3 4.1 C 3.2 km/h
499 29-11-2014 22:05:00 4.1 C 5.76 g/m*3 4.1 C 1.6 km/h
500 29-11-2014 22:10:00 4.1 C 5.76 g/m*3 4.1 C 3.2 km/h
Sensor: Nr:Datum:Temp:Abs-Feuchte:Windchill:Wind:
Aussen-T/F 501 29-11-2014 22:15:00 4.1 C 5.76 g/m*3 4.1 C 0 km/h
502 29-11-2014 22:20:00 4.1 C 5.76 g/m*3 4.1 C 0 km/h
503 29-11-2014 22:25:00 4.1 C 5.76 g/m*3 4.1 C 1.6 km/h
504 29-11-2014 22:30:00 4.1 C 5.76 g/m*3 4.1 C 1.6 km/h
505 29-11-2014 22:35:00 4.1 C 5.76 g/m*3 4.1 C 3.2 km/h
506 29-11-2014 22:40:00 4.1 C 5.76 g/m*3 4.1 C 4.8 km/h
507 29-11-2014 22:45:00 4.1 C 5.76 g/m*3 4.1 C 1.6 km/h
508 29-11-2014 22:50:00 4.1 C 5.76 g/m*3 4.1 C 1.6 km/h
509 29-11-2014 22:55:00 4.1 C 5.76 g/m*3 4.1 C 0 km/h
510 29-11-2014 23:00:00 4.1 C 5.76 g/m*3 4.1 C 3.2 km/h
511 29-11-2014 23:05:00 4.1 C 5.76 g/m*3 4.1 C 4.8 km/h
512 29-11-2014 23:10:00 4.1 C 5.76 g/m*3 4.1 C 1.6 km/h
513 29-11-2014 23:15:00 4.1 C 5.76 g/m*3 4.1 C 3.2 km/h
514 29-11-2014 23:20:00 4.1 C 5.76 g/m*3 4.1 C 0 km/h
515 29-11-2014 23:25:00 4.1 C 5.76 g/m*3 4.1 C 0 km/h
516 29-11-2014 23:30:00 4.1 C 5.76 g/m*3 4.1 C 4.8 km/h
517 29-11-2014 23:35:00 4 C 5.72 g/m*3 4 C 3.2 km/h
518 29-11-2014 23:40:00 4 C 5.72 g/m*3 4 C 3.2 km/h
519 29-11-2014 23:45:00 4 C 5.72 g/m*3 4 C 1.6 km/h
520 29-11-2014 23:50:00 4 C 5.72 g/m*3 4 C 0 km/h
521 29-11-2014 23:55:00 3.9 C 5.68 g/m*3 3.9 C 4.8 km/h
522 30-11-2014 00:00:00 3.9 C 5.68 g/m*3 2.32 C 6.4 km/h
523 30-11-2014 00:05:00 3.9 C 5.68 g/m*3 3.9 C 0 km/h
524 30-11-2014 00:10:00 3.9 C 5.68 g/m*3 3.9 C 0 km/h
525 30-11-2014 00:15:00 3.9 C 5.68 g/m*3 3.9 C 1.6 km/h
Sensor: Nr:Datum:Temp:Abs-Feuchte:Windchill:Wind:
Aussen-T/F 526 30-11-2014 00:20:00 3.9 C 5.68 g/m*3 3.9 C 0 km/h
527 30-11-2014 00:25:00 3.9 C 5.68 g/m*3 3.9 C 3.2 km/h
528 30-11-2014 00:30:00 3.9 C 5.68 g/m*3 3.9 C 0 km/h
529 30-11-2014 00:35:00 3.9 C 5.68 g/m*3 3.9 C 1.6 km/h
530 30-11-2014 00:40:00 3.9 C 5.68 g/m*3 2.32 C 6.4 km/h
531 30-11-2014 00:45:00 3.9 C 5.68 g/m*3 3.9 C 1.6 km/h
532 30-11-2014 00:50:00 3.9 C 5.68 g/m*3 3.9 C 1.6 km/h
533 30-11-2014 00:55:00 3.9 C 5.68 g/m*3 3.9 C 1.6 km/h
534 30-11-2014 01:00:00 3.9 C 5.68 g/m*3 3.9 C 0 km/h
535 30-11-2014 01:05:00 3.9 C 5.68 g/m*3 3.9 C 1.6 km/h
536 30-11-2014 01:10:00 3.9 C 5.68 g/m*3 3.9 C 3.2 km/h
537 30-11-2014 01:15:00 3.9 C 5.68 g/m*3 3.9 C 3.2 km/h
538 30-11-2014 01:20:00 3.9 C 5.68 g/m*3 3.9 C 3.2 km/h
539 30-11-2014 01:25:00 3.9 C 5.68 g/m*3 3.9 C 0 km/h
540 30-11-2014 01:30:00 3.9 C 5.75 g/m*3 3.9 C 0 km/h
541 30-11-2014 01:35:00 3.9 C 5.68 g/m*3 3.9 C 3.2 km/h
542 30-11-2014 01:40:00 3.9 C 5.68 g/m*3 3.9 C 4.8 km/h
543 30-11-2014 01:45:00 3.9 C 5.68 g/m*3 3.9 C 1.6 km/h
544 30-11-2014 01:50:00 3.9 C 5.68 g/m*3 3.9 C 0 km/h
545 30-11-2014 01:55:00 3.9 C 5.68 g/m*3 3.9 C 0 km/h
546 30-11-2014 02:00:00 3.9 C 5.75 g/m*3 3.9 C 0 km/h
547 30-11-2014 02:05:00 3.9 C 5.75 g/m*3 3.9 C 1.6 km/h
548 30-11-2014 02:10:00 3.9 C 5.68 g/m*3 3.9 C 0 km/h
549 30-11-2014 02:15:00 3.9 C 5.75 g/m*3 3.9 C 0 km/h
550 30-11-2014 02:20:00 4 C 5.79 g/m*3 4 C 0 km/h
Sensor: Nr:Datum:Temp:Abs-Feuchte:Windchill:Wind:
Aussen-T/F 551 30-11-2014 02:25:00 4 C 5.79 g/m*3 4 C 1.6 km/h
552 30-11-2014 02:30:00 4 C 5.79 g/m*3 4 C 1.6 km/h
553 30-11-2014 02:35:00 3.9 C 5.68 g/m*3 3.9 C 0 km/h
554 30-11-2014 02:40:00 3.9 C 5.68 g/m*3 3.9 C 1.6 km/h
555 30-11-2014 02:45:00 3.9 C 5.68 g/m*3 3.9 C 1.6 km/h
556 30-11-2014 02:50:00 4 C 5.72 g/m*3 4 C 1.6 km/h
557 30-11-2014 02:55:00 4 C 5.79 g/m*3 4 C 0 km/h
558 30-11-2014 03:00:00 4 C 5.79 g/m*3 4 C 0 km/h
559 30-11-2014 03:05:00 4 C 5.79 g/m*3 4 C 0 km/h
560 30-11-2014 03:10:00 4 C 5.79 g/m*3 4 C 0 km/h
561 30-11-2014 03:15:00 4 C 5.79 g/m*3 4 C 0 km/h
562 30-11-2014 03:20:00 4 C 5.79 g/m*3 4 C 3.2 km/h
563 30-11-2014 03:25:00 4 C 5.79 g/m*3 4 C 3.2 km/h
564 30-11-2014 03:30:00 4 C 5.79 g/m*3 4 C 0 km/h
565 30-11-2014 03:35:00 4 C 5.79 g/m*3 4 C 1.6 km/h
566 30-11-2014 03:40:00 3.9 C 5.75 g/m*3 3.9 C 3.2 km/h
567 30-11-2014 03:45:00 4 C 5.79 g/m*3 4 C 1.6 km/h
568 30-11-2014 03:50:00 3.9 C 5.75 g/m*3 3.9 C 1.6 km/h
569 30-11-2014 03:55:00 3.9 C 5.75 g/m*3 3.9 C 0 km/h
570 30-11-2014 04:00:00 3.9 C 5.75 g/m*3 3.9 C 0 km/h
571 30-11-2014 04:05:00 3.9 C 5.75 g/m*3 3.9 C 0 km/h
572 30-11-2014 04:10:00 3.9 C 5.75 g/m*3 3.9 C 0 km/h
573 30-11-2014 04:15:00 3.9 C 5.75 g/m*3 3.9 C 0 km/h
574 30-11-2014 04:20:00 3.9 C 5.75 g/m*3 3.9 C 0 km/h
575 30-11-2014 04:25:00 3.9 C 5.75 g/m*3 3.9 C 0 km/h
Sensor: Nr:Datum:Temp:Abs-Feuchte:Windchill:Wind:
Aussen-T/F 576 30-11-2014 04:30:00 4 C 5.79 g/m*3 4 C 0 km/h
577 30-11-2014 04:35:00 3.9 C 5.75 g/m*3 3.9 C 1.6 km/h
578 30-11-2014 04:40:00 3.9 C 5.75 g/m*3 3.9 C 0 km/h
579 30-11-2014 04:45:00 3.9 C 5.75 g/m*3 3.9 C 0 km/h
580 30-11-2014 04:50:00 3.9 C 5.75 g/m*3 3.9 C 1.6 km/h
581 30-11-2014 04:55:00 3.9 C 5.75 g/m*3 3.9 C 1.6 km/h
582 30-11-2014 05:00:00 3.9 C 5.75 g/m*3 3.9 C 0 km/h
583 30-11-2014 05:05:00 3.9 C 5.75 g/m*3 3.9 C 0 km/h
584 30-11-2014 05:10:00 3.9 C 5.75 g/m*3 3.9 C 1.6 km/h
585 30-11-2014 05:15:00 3.9 C 5.75 g/m*3 3.9 C 0 km/h
586 30-11-2014 05:20:00 3.9 C 5.75 g/m*3 3.9 C 1.6 km/h
587 30-11-2014 05:25:00 3.9 C 5.75 g/m*3 3.9 C 3.2 km/h
588 30-11-2014 05:30:00 3.9 C 5.75 g/m*3 3.9 C 0 km/h
589 30-11-2014 05:35:00 3.9 C 5.75 g/m*3 3.9 C 0 km/h
590 30-11-2014 05:40:00 3.9 C 5.75 g/m*3 3.9 C 0 km/h
591 30-11-2014 05:45:00 3.9 C 5.75 g/m*3 3.9 C 0 km/h
592 30-11-2014 05:50:00 3.9 C 5.75 g/m*3 3.9 C 0 km/h
593 30-11-2014 05:55:00 3.9 C 5.75 g/m*3 3.9 C 3.2 km/h
594 30-11-2014 06:00:00 3.9 C 5.75 g/m*3 3.9 C 3.2 km/h
595 30-11-2014 06:05:00 3.9 C 5.75 g/m*3 3.9 C 3.2 km/h
596 30-11-2014 06:10:00 3.9 C 5.75 g/m*3 3.9 C 0 km/h
597 30-11-2014 06:15:00 3.9 C 5.75 g/m*3 3.9 C 1.6 km/h
598 30-11-2014 06:20:00 3.9 C 5.75 g/m*3 3.9 C 4.8 km/h
599 30-11-2014 06:25:00 3.9 C 5.75 g/m*3 3.9 C 0 km/h
600 30-11-2014 06:30:00 3.9 C 5.75 g/m*3 3.9 C 1.6 km/h
Sensor: Nr:Datum:Temp:Abs-Feuchte:Windchill:Wind:
Aussen-T/F 601 30-11-2014 06:35:00 3.8 C 5.71 g/m*3 3.8 C 1.6 km/h
602 30-11-2014 06:40:00 3.8 C 5.71 g/m*3 3.8 C 1.6 km/h
603 30-11-2014 06:45:00 3.8 C 5.71 g/m*3 3.8 C 3.2 km/h
604 30-11-2014 06:50:00 3.8 C 5.71 g/m*3 3.8 C 1.6 km/h
605 30-11-2014 06:55:00 3.8 C 5.71 g/m*3 3.8 C 0 km/h
606 30-11-2014 07:00:00 3.8 C 5.71 g/m*3 3.8 C 0 km/h
607 30-11-2014 07:05:00 3.8 C 5.77 g/m*3 1.7 C 8.1 km/h
608 30-11-2014 07:10:00 3.8 C 5.71 g/m*3 1.7 C 8.1 km/h
609 30-11-2014 07:15:00 3.8 C 5.71 g/m*3 3.8 C 3.2 km/h
610 30-11-2014 07:20:00 3.8 C 5.71 g/m*3 3.8 C 0 km/h
611 30-11-2014 07:25:00 3.8 C 5.77 g/m*3 3.8 C 1.6 km/h
612 30-11-2014 07:30:00 3.8 C 5.71 g/m*3 3.8 C 0 km/h
613 30-11-2014 07:35:00 3.8 C 5.71 g/m*3 3.8 C 1.6 km/h
614 30-11-2014 07:40:00 3.8 C 5.71 g/m*3 3.8 C 1.6 km/h
615 30-11-2014 07:45:00 3.8 C 5.71 g/m*3 3.8 C 3.2 km/h
616 30-11-2014 07:50:00 3.8 C 5.77 g/m*3 3.8 C 1.6 km/h
617 30-11-2014 07:55:00 3.8 C 5.77 g/m*3 3.8 C 1.6 km/h
618 30-11-2014 08:00:00 3.8 C 5.77 g/m*3 3.8 C 1.6 km/h
619 30-11-2014 08:05:00 3.8 C 5.71 g/m*3 3.8 C 4.8 km/h
620 30-11-2014 08:10:00 3.8 C 5.71 g/m*3 3.8 C 4.8 km/h
621 30-11-2014 08:15:00 3.8 C 5.77 g/m*3 3.8 C 1.6 km/h
622 30-11-2014 08:20:00 3.8 C 5.77 g/m*3 3.8 C 1.6 km/h
623 30-11-2014 08:25:00 3.8 C 5.77 g/m*3 3.8 C 1.6 km/h
624 30-11-2014 08:30:00 3.8 C 5.77 g/m*3 3.8 C 1.6 km/h
625 30-11-2014 08:35:00 3.8 C 5.77 g/m*3 3.8 C 1.6 km/h
Sensor: Nr:Datum:Temp:Abs-Feuchte:Windchill:Wind:
Aussen-T/F 626 30-11-2014 08:40:00 3.8 C 5.77 g/m*3 3.8 C 1.6 km/h
627 30-11-2014 08:45:00 3.8 C 5.77 g/m*3 3.8 C 1.6 km/h
628 30-11-2014 08:50:00 3.8 C 5.77 g/m*3 3.8 C 3.2 km/h
629 30-11-2014 08:55:00 3.8 C 5.77 g/m*3 3.8 C 1.6 km/h
630 30-11-2014 09:00:00 3.8 C 5.77 g/m*3 3.8 C 3.2 km/h
631 30-11-2014 09:05:00 3.8 C 5.77 g/m*3 3.8 C 3.2 km/h
632 30-11-2014 09:10:00 3.8 C 5.77 g/m*3 2.21 C 6.4 km/h
633 30-11-2014 09:15:00 3.9 C 5.81 g/m*3 3.9 C 4.8 km/h
634 30-11-2014 09:20:00 3.9 C 5.81 g/m*3 3.9 C 3.2 km/h
635 30-11-2014 09:25:00 3.9 C 5.81 g/m*3 3.9 C 0 km/h
636 30-11-2014 09:30:00 3.9 C 5.81 g/m*3 3.9 C 4.8 km/h
637 30-11-2014 09:35:00 3.9 C 5.81 g/m*3 3.9 C 3.2 km/h
638 30-11-2014 09:40:00 3.9 C 5.81 g/m*3 3.9 C 0 km/h
639 30-11-2014 09:45:00 3.9 C 5.75 g/m*3 3.9 C 1.6 km/h
640 30-11-2014 09:50:00 3.9 C 5.81 g/m*3 3.9 C 3.2 km/h
641 30-11-2014 09:55:00 3.9 C 5.81 g/m*3 3.9 C 0 km/h
642 30-11-2014 10:00:00 3.9 C 5.81 g/m*3 3.9 C 3.2 km/h
643 30-11-2014 10:05:00 4 C 5.85 g/m*3 4 C 1.6 km/h
644 30-11-2014 10:10:00 3.9 C 5.81 g/m*3 3.9 C 3.2 km/h
645 30-11-2014 10:15:00 4 C 5.85 g/m*3 4 C 4.8 km/h
646 30-11-2014 10:20:00 4 C 5.79 g/m*3 4 C 3.2 km/h
647 30-11-2014 10:25:00 4 C 5.85 g/m*3 4 C 0 km/h
648 30-11-2014 10:30:00 4 C 5.85 g/m*3 1.93 C 8.1 km/h
649 30-11-2014 10:35:00 4 C 5.85 g/m*3 4 C 3.2 km/h
650 30-11-2014 10:40:00 4.1 C 5.89 g/m*3 4.1 C 0 km/h
Sensor: Nr:Datum:Temp:Abs-Feuchte:Windchill:Wind:
Aussen-T/F 651 30-11-2014 10:45:00 4.1 C 5.89 g/m*3 4.1 C 0 km/h
652 30-11-2014 10:50:00 4.1 C 5.89 g/m*3 4.1 C 3.2 km/h
653 30-11-2014 10:55:00 4.1 C 5.82 g/m*3 4.1 C 4.8 km/h
654 30-11-2014 11:00:00 4.1 C 5.82 g/m*3 4.1 C 4.8 km/h
655 30-11-2014 11:05:00 4 C 5.85 g/m*3 4 C 4.8 km/h
656 30-11-2014 11:10:00 4.1 C 5.89 g/m*3 4.1 C 1.6 km/h
657 30-11-2014 11:15:00 4.1 C 5.89 g/m*3 4.1 C 1.6 km/h
658 30-11-2014 11:20:00 4.1 C 5.89 g/m*3 4.1 C 4.8 km/h
659 30-11-2014 11:25:00 4.2 C 5.93 g/m*3 4.2 C 4.8 km/h
660 30-11-2014 11:30:00 4.2 C 5.93 g/m*3 4.2 C 1.6 km/h
661 30-11-2014 11:35:00 4.2 C 5.93 g/m*3 4.2 C 4.8 km/h
662 30-11-2014 11:40:00 4.2 C 5.93 g/m*3 4.2 C 1.6 km/h
663 30-11-2014 11:45:00 4.2 C 5.93 g/m*3 4.2 C 0 km/h
664 30-11-2014 11:50:00 4.2 C 5.93 g/m*3 4.2 C 3.2 km/h
665 30-11-2014 11:55:00 4.2 C 5.86 g/m*3 4.2 C 0 km/h
666 30-11-2014 12:00:00 4.3 C 5.9 g/m*3 4.3 C 3.2 km/h
667 30-11-2014 12:05:00 4.3 C 5.9 g/m*3 4.3 C 3.2 km/h
668 30-11-2014 12:10:00 4.3 C 5.9 g/m*3 4.3 C 4.8 km/h
669 30-11-2014 12:15:00 4.3 C 5.97 g/m*3 4.3 C 4.8 km/h
670 30-11-2014 12:20:00 4.3 C 5.9 g/m*3 4.3 C 3.2 km/h
671 30-11-2014 12:25:00 4.3 C 5.9 g/m*3 4.3 C 1.6 km/h
672 30-11-2014 12:30:00 4.3 C 5.9 g/m*3 4.3 C 1.6 km/h
673 30-11-2014 12:35:00 4.3 C 5.9 g/m*3 4.3 C 1.6 km/h
674 30-11-2014 12:40:00 4.3 C 5.97 g/m*3 4.3 C 0 km/h
675 30-11-2014 12:45:00 4.4 C 6.01 g/m*3 4.4 C 4.8 km/h
Sensor: Nr:Datum:Temp:Abs-Feuchte:Windchill:Wind:
Aussen-T/F 676 30-11-2014 12:50:00 4.4 C 5.94 g/m*3 4.4 C 4.8 km/h
677 30-11-2014 12:55:00 4.4 C 5.94 g/m*3 4.4 C 1.6 km/h
678 30-11-2014 13:00:00 4.3 C 5.9 g/m*3 4.3 C 0 km/h
679 30-11-2014 13:05:00 4.3 C 5.9 g/m*3 4.3 C 3.2 km/h
680 30-11-2014 13:10:00 4.3 C 5.9 g/m*3 4.3 C 1.6 km/h
681 30-11-2014 13:15:00 4.3 C 5.9 g/m*3 4.3 C 3.2 km/h
682 30-11-2014 13:20:00 4.3 C 5.9 g/m*3 4.3 C 3.2 km/h
683 30-11-2014 13:25:00 4.3 C 5.9 g/m*3 4.3 C 1.6 km/h
684 30-11-2014 13:30:00 4.3 C 5.9 g/m*3 4.3 C 0 km/h
685 30-11-2014 13:35:00 4.3 C 5.9 g/m*3 4.3 C 0 km/h
686 30-11-2014 13:40:00 4.3 C 5.9 g/m*3 4.3 C 4.8 km/h
687 30-11-2014 13:45:00 4.4 C 6.01 g/m*3 4.4 C 1.6 km/h
688 30-11-2014 13:50:00 4.3 C 5.9 g/m*3 4.3 C 1.6 km/h
689 30-11-2014 13:55:00 4.3 C 5.9 g/m*3 4.3 C 3.2 km/h
690 30-11-2014 14:00:00 4.3 C 5.9 g/m*3 4.3 C 0 km/h
691 30-11-2014 14:05:00 4.3 C 5.9 g/m*3 4.3 C 0 km/h
692 30-11-2014 14:10:00 4.3 C 5.9 g/m*3 4.3 C 3.2 km/h
693 30-11-2014 14:15:00 4.3 C 5.9 g/m*3 4.3 C 3.2 km/h
694 30-11-2014 14:20:00 4.3 C 5.9 g/m*3 4.3 C 3.2 km/h
695 30-11-2014 14:25:00 4.3 C 5.9 g/m*3 4.3 C 1.6 km/h
696 30-11-2014 14:30:00 4.2 C 5.86 g/m*3 4.2 C 4.8 km/h
697 30-11-2014 14:35:00 4.1 C 5.82 g/m*3 4.1 C 4.8 km/h
698 30-11-2014 14:40:00 4.1 C 5.89 g/m*3 4.1 C 1.6 km/h
699 30-11-2014 14:45:00 4.1 C 5.89 g/m*3 4.1 C 0 km/h
700 30-11-2014 14:50:00 4.1 C 5.89 g/m*3 4.1 C 0 km/h
Sensor: Nr:Datum:Temp:Abs-Feuchte:Windchill:Wind:
Aussen-T/F 701 30-11-2014 14:55:00 4.1 C 5.89 g/m*3 4.1 C 3.2 km/h
702 30-11-2014 15:00:00 4.1 C 5.82 g/m*3 4.1 C 3.2 km/h
703 30-11-2014 15:05:00 4.1 C 5.89 g/m*3 4.1 C 3.2 km/h
704 30-11-2014 15:10:00 4.1 C 5.89 g/m*3 4.1 C 3.2 km/h
705 30-11-2014 15:15:00 4.1 C 5.89 g/m*3 4.1 C 1.6 km/h
706 30-11-2014 15:20:00 4.1 C 5.89 g/m*3 4.1 C 0 km/h
707 30-11-2014 15:25:00 4.1 C 5.89 g/m*3 4.1 C 0 km/h
708 30-11-2014 15:30:00 4.1 C 5.89 g/m*3 4.1 C 3.2 km/h
709 30-11-2014 15:35:00 4.1 C 5.89 g/m*3 4.1 C 3.2 km/h
710 30-11-2014 15:40:00 4.1 C 5.89 g/m*3 4.1 C 3.2 km/h
711 30-11-2014 15:45:00 4.1 C 5.82 g/m*3 2.05 C 8.1 km/h
712 30-11-2014 15:50:00 4 C 5.85 g/m*3 4 C 4.8 km/h
713 30-11-2014 15:55:00 3.9 C 5.81 g/m*3 3.9 C 4.8 km/h
714 30-11-2014 16:00:00 3.9 C 5.81 g/m*3 3.9 C 4.8 km/h
715 30-11-2014 16:05:00 3.9 C 5.81 g/m*3 3.9 C 3.2 km/h
716 30-11-2014 16:10:00 3.8 C 5.77 g/m*3 3.8 C 1.6 km/h
717 30-11-2014 16:15:00 3.9 C 5.81 g/m*3 3.9 C 3.2 km/h
718 30-11-2014 16:20:00 3.9 C 5.87 g/m*3 3.9 C 1.6 km/h
719 30-11-2014 16:25:00 3.9 C 5.87 g/m*3 3.9 C 1.6 km/h
720 30-11-2014 16:30:00 3.9 C 5.81 g/m*3 3.9 C 1.6 km/h
721 30-11-2014 16:35:00 3.8 C 5.77 g/m*3 3.8 C 3.2 km/h
722 30-11-2014 16:40:00 3.8 C 5.77 g/m*3 3.8 C 0 km/h
723 30-11-2014 16:45:00 3.8 C 5.77 g/m*3 3.8 C 1.6 km/h
724 30-11-2014 16:50:00 3.8 C 5.77 g/m*3 3.8 C 0 km/h
725 30-11-2014 16:55:00 3.8 C 5.77 g/m*3 3.8 C 1.6 km/h
Sensor: Nr:Datum:Temp:Abs-Feuchte:Windchill:Wind:
Aussen-T/F 726 30-11-2014 17:00:00 3.8 C 5.77 g/m*3 3.8 C 0 km/h
727 30-11-2014 17:05:00 3.8 C 5.77 g/m*3 3.8 C 3.2 km/h
728 30-11-2014 17:10:00 3.8 C 5.83 g/m*3 3.8 C 0 km/h
729 30-11-2014 17:15:00 3.8 C 5.77 g/m*3 3.8 C 0 km/h
730 30-11-2014 17:20:00 3.8 C 5.83 g/m*3 3.8 C 0 km/h
731 30-11-2014 17:25:00 3.8 C 5.83 g/m*3 3.8 C 0 km/h
732 30-11-2014 17:30:00 3.8 C 5.77 g/m*3 3.8 C 1.6 km/h
733 30-11-2014 17:35:00 3.8 C 5.83 g/m*3 3.8 C 3.2 km/h
734 30-11-2014 17:40:00 3.8 C 5.83 g/m*3 3.8 C 0 km/h
735 30-11-2014 17:45:00 3.8 C 5.83 g/m*3 3.8 C 0 km/h
736 30-11-2014 17:50:00 3.8 C 5.83 g/m*3 3.8 C 1.6 km/h
737 30-11-2014 17:55:00 3.8 C 5.83 g/m*3 3.8 C 1.6 km/h
738 30-11-2014 18:00:00 3.8 C 5.83 g/m*3 3.8 C 0 km/h
739 30-11-2014 18:05:00 3.8 C 5.83 g/m*3 3.8 C 0 km/h
740 30-11-2014 18:10:00 3.8 C 5.83 g/m*3 3.8 C 0 km/h
741 30-11-2014 18:15:00 3.8 C 5.77 g/m*3 3.8 C 0 km/h
742 30-11-2014 18:20:00 3.8 C 5.83 g/m*3 3.8 C 4.8 km/h
743 30-11-2014 18:25:00 3.8 C 5.83 g/m*3 3.8 C 3.2 km/h
744 30-11-2014 18:30:00 3.7 C 5.73 g/m*3 1.58 C 8.1 km/h
745 30-11-2014 18:35:00 3.7 C 5.8 g/m*3 3.7 C 1.6 km/h
746 30-11-2014 18:40:00 3.7 C 5.8 g/m*3 3.7 C 0 km/h
747 30-11-2014 18:45:00 3.7 C 5.8 g/m*3 3.7 C 3.2 km/h
748 30-11-2014 18:50:00 3.7 C 5.8 g/m*3 3.7 C 3.2 km/h
749 30-11-2014 18:55:00 3.7 C 5.8 g/m*3 3.7 C 4.8 km/h
750 30-11-2014 19:00:00 3.7 C 5.8 g/m*3 2.09 C 6.4 km/h
Sensor: Nr:Datum:Temp:Abs-Feuchte:Windchill:Wind:
Aussen-T/F 751 30-11-2014 19:05:00 3.7 C 5.8 g/m*3 3.7 C 1.6 km/h
752 30-11-2014 19:10:00 3.7 C 5.8 g/m*3 3.7 C 1.6 km/h
753 30-11-2014 19:15:00 3.7 C 5.8 g/m*3 3.7 C 4.8 km/h
754 30-11-2014 19:20:00 3.7 C 5.8 g/m*3 3.7 C 1.6 km/h
755 30-11-2014 19:25:00 3.7 C 5.8 g/m*3 3.7 C 3.2 km/h
756 30-11-2014 19:30:00 3.7 C 5.8 g/m*3 3.7 C 1.6 km/h
757 30-11-2014 19:35:00 3.7 C 5.8 g/m*3 3.7 C 3.2 km/h
758 30-11-2014 19:40:00 3.7 C 5.8 g/m*3 3.7 C 1.6 km/h
759 30-11-2014 19:45:00 3.7 C 5.8 g/m*3 3.7 C 1.6 km/h
760 30-11-2014 19:50:00 3.7 C 5.8 g/m*3 3.7 C 3.2 km/h
761 30-11-2014 19:55:00 3.6 C 5.76 g/m*3 1.98 C 6.4 km/h
762 30-11-2014 20:00:00 3.6 C 5.76 g/m*3 3.6 C 4.8 km/h
763 30-11-2014 20:05:00 3.6 C 5.76 g/m*3 3.6 C 4.8 km/h
764 30-11-2014 20:10:00 3.6 C 5.76 g/m*3 3.6 C 1.6 km/h
765 30-11-2014 20:15:00 3.6 C 5.76 g/m*3 3.6 C 1.6 km/h
766 30-11-2014 20:20:00 3.7 C 5.8 g/m*3 3.7 C 0 km/h
767 30-11-2014 20:25:00 3.7 C 5.8 g/m*3 3.7 C 1.6 km/h
768 30-11-2014 20:30:00 3.7 C 5.8 g/m*3 3.7 C 1.6 km/h
769 30-11-2014 20:35:00 3.7 C 5.8 g/m*3 3.7 C 0 km/h
770 30-11-2014 20:40:00 3.7 C 5.8 g/m*3 3.7 C 1.6 km/h
771 30-11-2014 20:45:00 3.7 C 5.8 g/m*3 3.7 C 0 km/h
772 30-11-2014 20:50:00 3.7 C 5.8 g/m*3 3.7 C 4.8 km/h
773 30-11-2014 20:55:00 3.7 C 5.8 g/m*3 3.7 C 3.2 km/h
774 30-11-2014 21:00:00 3.7 C 5.8 g/m*3 3.7 C 0 km/h
775 30-11-2014 21:05:00 3.7 C 5.8 g/m*3 3.7 C 1.6 km/h
Sensor: Nr:Datum:Temp:Abs-Feuchte:Windchill:Wind:
Aussen-T/F 776 30-11-2014 21:10:00 3.7 C 5.8 g/m*3 3.7 C 1.6 km/h
777 30-11-2014 21:15:00 3.7 C 5.8 g/m*3 3.7 C 1.6 km/h
778 30-11-2014 21:20:00 3.7 C 5.8 g/m*3 3.7 C 0 km/h
779 30-11-2014 21:25:00 3.7 C 5.86 g/m*3 3.7 C 3.2 km/h
780 30-11-2014 21:30:00 3.7 C 5.8 g/m*3 3.7 C 4.8 km/h
781 30-11-2014 21:35:00 3.6 C 5.76 g/m*3 3.6 C 3.2 km/h
782 30-11-2014 21:40:00 3.6 C 5.76 g/m*3 3.6 C 1.6 km/h
783 30-11-2014 21:45:00 3.6 C 5.82 g/m*3 3.6 C 1.6 km/h
784 30-11-2014 21:50:00 3.6 C 5.82 g/m*3 3.6 C 1.6 km/h
785 30-11-2014 21:55:00 3.6 C 5.76 g/m*3 3.6 C 3.2 km/h
786 30-11-2014 22:00:00 3.6 C 5.82 g/m*3 3.6 C 1.6 km/h
787 30-11-2014 22:05:00 3.6 C 5.82 g/m*3 3.6 C 4.8 km/h
788 30-11-2014 22:10:00 3.6 C 5.82 g/m*3 3.6 C 3.2 km/h
789 30-11-2014 22:15:00 3.6 C 5.82 g/m*3 3.6 C 0 km/h
790 30-11-2014 22:20:00 3.5 C 5.72 g/m*3 3.5 C 1.6 km/h
791 30-11-2014 22:25:00 3.5 C 5.78 g/m*3 3.5 C 3.2 km/h
792 30-11-2014 22:30:00 3.5 C 5.78 g/m*3 3.5 C 3.2 km/h
793 30-11-2014 22:35:00 3.5 C 5.78 g/m*3 3.5 C 4.8 km/h
794 30-11-2014 22:40:00 3.5 C 5.78 g/m*3 3.5 C 0 km/h
795 30-11-2014 22:45:00 3.5 C 5.78 g/m*3 3.5 C 1.6 km/h
796 30-11-2014 22:50:00 3.5 C 5.78 g/m*3 3.5 C 1.6 km/h
797 30-11-2014 22:55:00 3.5 C 5.78 g/m*3 3.5 C 1.6 km/h
798 30-11-2014 23:00:00 3.5 C 5.78 g/m*3 3.5 C 3.2 km/h
799 30-11-2014 23:05:00 3.5 C 5.78 g/m*3 3.5 C 3.2 km/h
800 30-11-2014 23:10:00 3.5 C 5.78 g/m*3 3.5 C 0 km/h
Sensor: Nr:Datum:Temp:Abs-Feuchte:Windchill:Wind:
Aussen-T/F 801 30-11-2014 23:15:00 3.5 C 5.78 g/m*3 3.5 C 3.2 km/h
802 30-11-2014 23:20:00 3.5 C 5.78 g/m*3 3.5 C 3.2 km/h
803 30-11-2014 23:25:00 3.5 C 5.78 g/m*3 3.5 C 3.2 km/h
804 30-11-2014 23:30:00 3.4 C 5.74 g/m*3 3.4 C 3.2 km/h
805 30-11-2014 23:35:00 3.4 C 5.74 g/m*3 3.4 C 1.6 km/h
806 30-11-2014 23:40:00 3.4 C 5.74 g/m*3 3.4 C 1.6 km/h
807 30-11-2014 23:45:00 3.5 C 5.78 g/m*3 3.5 C 3.2 km/h
808 30-11-2014 23:50:00 3.5 C 5.78 g/m*3 3.5 C 3.2 km/h
809 30-11-2014 23:55:00 3.4 C 5.74 g/m*3 3.4 C 0 km/h
810 01-12-2014 00:00:00 3.4 C 5.74 g/m*3 3.4 C 0 km/h
811 01-12-2014 00:05:00 3.4 C 5.74 g/m*3 3.4 C 4.8 km/h
812 01-12-2014 00:10:00 3.4 C 5.74 g/m*3 3.4 C 1.6 km/h
813 01-12-2014 00:15:00 3.4 C 5.74 g/m*3 1.23 C 8.1 km/h
814 01-12-2014 00:20:00 3.4 C 5.74 g/m*3 3.4 C 3.2 km/h
815 01-12-2014 00:25:00 3.4 C 5.74 g/m*3 0.82 C 9.7 km/h
816 01-12-2014 00:30:00 3.4 C 5.74 g/m*3 1.75 C 6.4 km/h
817 01-12-2014 00:35:00 3.4 C 5.74 g/m*3 3.4 C 1.6 km/h
818 01-12-2014 00:40:00 3.3 C 5.7 g/m*3 3.3 C 1.6 km/h
819 01-12-2014 00:45:00 3.3 C 5.7 g/m*3 3.3 C 3.2 km/h
820 01-12-2014 00:50:00 3.4 C 5.74 g/m*3 3.4 C 1.6 km/h
821 01-12-2014 00:55:00 3.3 C 5.7 g/m*3 3.3 C 3.2 km/h
822 01-12-2014 01:00:00 3.3 C 5.7 g/m*3 3.3 C 4.8 km/h
823 01-12-2014 01:05:00 3.3 C 5.7 g/m*3 1.63 C 6.4 km/h
824 01-12-2014 01:10:00 3.3 C 5.7 g/m*3 3.3 C 4.8 km/h
825 01-12-2014 01:15:00 3.3 C 5.7 g/m*3 3.3 C 3.2 km/h
Sensor: Nr:Datum:Temp:Abs-Feuchte:Windchill:Wind:
Aussen-T/F 826 01-12-2014 01:20:00 3.3 C 5.7 g/m*3 3.3 C 1.6 km/h
827 01-12-2014 01:25:00 3.3 C 5.7 g/m*3 3.3 C 4.8 km/h
828 01-12-2014 01:30:00 3.3 C 5.7 g/m*3 3.3 C 0 km/h
829 01-12-2014 01:35:00 3.3 C 5.76 g/m*3 3.3 C 0 km/h
830 01-12-2014 01:40:00 3.3 C 5.76 g/m*3 3.3 C 1.6 km/h
831 01-12-2014 01:45:00 3.3 C 5.76 g/m*3 3.3 C 3.2 km/h
832 01-12-2014 01:50:00 3.3 C 5.76 g/m*3 3.3 C 3.2 km/h
833 01-12-2014 01:55:00 3.3 C 5.76 g/m*3 3.3 C 4.8 km/h
834 01-12-2014 02:00:00 3.3 C 5.76 g/m*3 3.3 C 1.6 km/h
835 01-12-2014 02:05:00 3.3 C 5.76 g/m*3 3.3 C 1.6 km/h
836 01-12-2014 02:10:00 3.3 C 5.76 g/m*3 3.3 C 0 km/h
837 01-12-2014 02:15:00 3.3 C 5.76 g/m*3 3.3 C 0 km/h
838 01-12-2014 02:20:00 3.3 C 5.76 g/m*3 3.3 C 1.6 km/h
839 01-12-2014 02:25:00 3.3 C 5.76 g/m*3 3.3 C 0 km/h
840 01-12-2014 02:30:00 3.3 C 5.76 g/m*3 3.3 C 0 km/h
841 01-12-2014 02:35:00 3.3 C 5.76 g/m*3 3.3 C 0 km/h
842 01-12-2014 02:40:00 3.3 C 5.76 g/m*3 3.3 C 0 km/h
843 01-12-2014 02:45:00 3.3 C 5.76 g/m*3 3.3 C 0 km/h
844 01-12-2014 02:50:00 3.3 C 5.76 g/m*3 3.3 C 0 km/h
845 01-12-2014 02:55:00 3.3 C 5.76 g/m*3 3.3 C 0 km/h
846 01-12-2014 03:00:00 3.3 C 5.76 g/m*3 3.3 C 0 km/h
847 01-12-2014 03:05:00 3.3 C 5.76 g/m*3 3.3 C 4.8 km/h
848 01-12-2014 03:10:00 3.3 C 5.76 g/m*3 3.3 C 1.6 km/h
849 01-12-2014 03:15:00 3.3 C 5.76 g/m*3 3.3 C 0 km/h
850 01-12-2014 03:20:00 3.4 C 5.8 g/m*3 3.4 C 0 km/h
Sensor: Nr:Datum:Temp:Abs-Feuchte:Windchill:Wind:
Aussen-T/F 851 01-12-2014 03:25:00 3.4 C 5.8 g/m*3 3.4 C 1.6 km/h
852 01-12-2014 03:30:00 3.4 C 5.8 g/m*3 3.4 C 1.6 km/h
853 01-12-2014 03:35:00 3.4 C 5.8 g/m*3 3.4 C 0 km/h
854 01-12-2014 03:40:00 3.4 C 5.8 g/m*3 3.4 C 0 km/h
855 01-12-2014 03:45:00 3.5 C 5.84 g/m*3 3.5 C 0 km/h
856 01-12-2014 03:50:00 3.5 C 5.84 g/m*3 3.5 C 3.2 km/h
857 01-12-2014 03:55:00 3.5 C 5.84 g/m*3 3.5 C 4.8 km/h
858 01-12-2014 04:00:00 3.5 C 5.84 g/m*3 3.5 C 0 km/h
859 01-12-2014 04:05:00 3.6 C 5.88 g/m*3 3.6 C 4.8 km/h
860 01-12-2014 04:10:00 3.6 C 5.88 g/m*3 3.6 C 3.2 km/h
861 01-12-2014 04:15:00 3.6 C 5.88 g/m*3 3.6 C 4.8 km/h
862 01-12-2014 04:20:00 3.6 C 5.88 g/m*3 3.6 C 4.8 km/h
863 01-12-2014 04:25:00 3.6 C 5.88 g/m*3 3.6 C 0 km/h
864 01-12-2014 04:30:00 3.7 C 5.92 g/m*3 3.7 C 0 km/h
865 01-12-2014 04:35:00 3.6 C 5.88 g/m*3 3.6 C 3.2 km/h
866 01-12-2014 04:40:00 3.7 C 5.92 g/m*3 3.7 C 1.6 km/h
867 01-12-2014 04:45:00 3.7 C 5.92 g/m*3 3.7 C 3.2 km/h
868 01-12-2014 04:50:00 3.7 C 5.86 g/m*3 3.7 C 1.6 km/h
869 01-12-2014 04:55:00 3.7 C 5.86 g/m*3 3.7 C 1.6 km/h
870 01-12-2014 05:00:00 3.8 C 5.9 g/m*3 3.8 C 0 km/h
871 01-12-2014 05:05:00 3.8 C 5.9 g/m*3 3.8 C 0 km/h
872 01-12-2014 05:10:00 3.8 C 5.9 g/m*3 3.8 C 0 km/h
873 01-12-2014 05:15:00 3.8 C 5.9 g/m*3 3.8 C 0 km/h
874 01-12-2014 05:20:00 3.8 C 5.9 g/m*3 3.8 C 0 km/h
875 01-12-2014 05:25:00 3.8 C 5.9 g/m*3 3.8 C 0 km/h
Sensor: Nr:Datum:Temp:Abs-Feuchte:Windchill:Wind:
Aussen-T/F 876 01-12-2014 05:30:00 3.8 C 5.9 g/m*3 3.8 C 1.6 km/h
877 01-12-2014 05:35:00 3.8 C 5.9 g/m*3 3.8 C 1.6 km/h
878 01-12-2014 05:40:00 3.8 C 5.9 g/m*3 3.8 C 3.2 km/h
879 01-12-2014 05:45:00 3.9 C 5.94 g/m*3 3.9 C 1.6 km/h
880 01-12-2014 05:50:00 3.9 C 5.94 g/m*3 3.9 C 1.6 km/h
881 01-12-2014 05:55:00 4 C 5.98 g/m*3 4 C 3.2 km/h
882 01-12-2014 06:00:00 4 C 5.91 g/m*3 4 C 3.2 km/h
883 01-12-2014 06:05:00 4.1 C 5.95 g/m*3 4.1 C 3.2 km/h
884 01-12-2014 06:10:00 4.1 C 5.95 g/m*3 4.1 C 3.2 km/h
885 01-12-2014 06:15:00 4.1 C 5.95 g/m*3 2.55 C 6.4 km/h
886 01-12-2014 06:20:00 4.1 C 5.95 g/m*3 2.55 C 6.4 km/h
887 01-12-2014 06:25:00 4.1 C 5.95 g/m*3 4.1 C 4.8 km/h
888 01-12-2014 06:30:00 4.1 C 5.95 g/m*3 4.1 C 4.8 km/h
889 01-12-2014 06:35:00 4.2 C 5.99 g/m*3 4.2 C 3.2 km/h
890 01-12-2014 06:40:00 4.2 C 5.99 g/m*3 4.2 C 1.6 km/h
891 01-12-2014 06:45:00 4.2 C 5.93 g/m*3 2.17 C 8.1 km/h
892 01-12-2014 06:50:00 4.2 C 5.93 g/m*3 2.67 C 6.4 km/h
893 01-12-2014 06:55:00 4.2 C 5.93 g/m*3 4.2 C 4.8 km/h
894 01-12-2014 07:00:00 4.2 C 5.93 g/m*3 4.2 C 4.8 km/h
895 01-12-2014 07:05:00 4.2 C 5.93 g/m*3 1.43 C 11.3 km/h
896 01-12-2014 07:10:00 4.2 C 5.93 g/m*3 4.2 C 4.8 km/h
897 01-12-2014 07:15:00 4.2 C 5.93 g/m*3 4.2 C 4.8 km/h
898 01-12-2014 07:20:00 4.2 C 5.93 g/m*3 4.2 C 4.8 km/h
899 01-12-2014 07:25:00 4.2 C 5.93 g/m*3 2.17 C 8.1 km/h
900 01-12-2014 07:30:00 4.2 C 5.93 g/m*3 2.17 C 8.1 km/h
Sensor: Nr:Datum:Temp:Abs-Feuchte:Windchill:Wind:
Aussen-T/F 901 01-12-2014 07:35:00 4.2 C 5.93 g/m*3 2.67 C 6.4 km/h
902 01-12-2014 07:40:00 4.2 C 5.93 g/m*3 4.2 C 3.2 km/h
903 01-12-2014 07:45:00 4.1 C 5.89 g/m*3 2.05 C 8.1 km/h
904 01-12-2014 07:50:00 4.1 C 5.89 g/m*3 1 C 12.9 km/h
905 01-12-2014 07:55:00 4.1 C 5.89 g/m*3 2.05 C 8.1 km/h
906 01-12-2014 08:00:00 4.1 C 5.89 g/m*3 4.1 C 4.8 km/h
907 01-12-2014 08:05:00 4.1 C 5.89 g/m*3 4.1 C 0 km/h
908 01-12-2014 08:10:00 4.1 C 5.89 g/m*3 4.1 C 1.6 km/h
909 01-12-2014 08:15:00 4 C 5.85 g/m*3 4 C 3.2 km/h
910 01-12-2014 08:20:00 4 C 5.85 g/m*3 2.44 C 6.4 km/h
911 01-12-2014 08:25:00 4 C 5.85 g/m*3 4 C 4.8 km/h
912 01-12-2014 08:30:00 4 C 5.85 g/m*3 1.18 C 11.3 km/h
913 01-12-2014 08:35:00 3.9 C 5.81 g/m*3 2.32 C 6.4 km/h
914 01-12-2014 08:40:00 3.9 C 5.75 g/m*3 3.9 C 4.8 km/h
915 01-12-2014 08:45:00 3.9 C 5.75 g/m*3 2.32 C 6.4 km/h
916 01-12-2014 08:50:00 3.9 C 5.75 g/m*3 1.06 C 11.3 km/h
917 01-12-2014 08:55:00 3.9 C 5.75 g/m*3 1.06 C 11.3 km/h
918 01-12-2014 09:00:00 3.8 C 5.71 g/m*3 0.63 C 12.9 km/h
919 01-12-2014 09:05:00 3.8 C 5.71 g/m*3 1.29 C 9.7 km/h
920 01-12-2014 09:10:00 3.8 C 5.71 g/m*3 1.29 C 9.7 km/h
921 01-12-2014 09:15:00 3.8 C 5.71 g/m*3 0.63 C 12.9 km/h
922 01-12-2014 09:20:00 3.7 C 5.67 g/m*3 0.23 C 14.5 km/h
923 01-12-2014 09:25:00 3.7 C 5.67 g/m*3 0.23 C 14.5 km/h
924 01-12-2014 09:30:00 3.7 C 5.67 g/m*3 0.51 C 12.9 km/h
925 01-12-2014 09:35:00 3.7 C 5.67 g/m*3 0.51 C 12.9 km/h
Sensor: Nr:Datum:Temp:Abs-Feuchte:Windchill:Wind:
Aussen-T/F 926 01-12-2014 09:40:00 3.7 C 5.67 g/m*3 0.51 C 12.9 km/h
927 01-12-2014 09:45:00 3.7 C 5.67 g/m*3 1.18 C 9.7 km/h
928 01-12-2014 09:50:00 3.7 C 5.67 g/m*3 1.18 C 9.7 km/h
929 01-12-2014 09:55:00 3.7 C 5.67 g/m*3 1.18 C 9.7 km/h
930 01-12-2014 10:00:00 3.7 C 5.61 g/m*3 1.18 C 9.7 km/h
931 01-12-2014 10:05:00 3.8 C 5.65 g/m*3 1.29 C 9.7 km/h
932 01-12-2014 10:10:00 3.7 C 5.61 g/m*3 1.58 C 8.1 km/h
933 01-12-2014 10:15:00 3.7 C 5.61 g/m*3 1.18 C 9.7 km/h
934 01-12-2014 10:20:00 3.8 C 5.65 g/m*3 2.21 C 6.4 km/h
935 01-12-2014 10:25:00 3.8 C 5.65 g/m*3 0.94 C 11.3 km/h
936 01-12-2014 10:30:00 3.8 C 5.65 g/m*3 0.63 C 12.9 km/h
937 01-12-2014 10:35:00 3.8 C 5.65 g/m*3 1.7 C 8.1 km/h
938 01-12-2014 10:40:00 3.8 C 5.65 g/m*3 1.7 C 8.1 km/h
939 01-12-2014 10:45:00 3.8 C 5.65 g/m*3 2.21 C 6.4 km/h
940 01-12-2014 10:50:00 3.8 C 5.65 g/m*3 0.94 C 11.3 km/h
941 01-12-2014 10:55:00 3.9 C 5.68 g/m*3 0.75 C 12.9 km/h
942 01-12-2014 11:00:00 3.9 C 5.68 g/m*3 1.06 C 11.3 km/h
943 01-12-2014 11:05:00 3.9 C 5.68 g/m*3 0.75 C 12.9 km/h
944 01-12-2014 11:10:00 3.9 C 5.68 g/m*3 1.41 C 9.7 km/h
945 01-12-2014 11:15:00 3.9 C 5.62 g/m*3 1.06 C 11.3 km/h
946 01-12-2014 11:20:00 3.9 C 5.62 g/m*3 0.75 C 12.9 km/h
947 01-12-2014 11:25:00 3.9 C 5.62 g/m*3 1.06 C 11.3 km/h
948 01-12-2014 11:30:00 3.8 C 5.58 g/m*3 0.94 C 11.3 km/h
949 01-12-2014 11:35:00 3.9 C 5.62 g/m*3 0.75 C 12.9 km/h
950 01-12-2014 11:40:00 3.8 C 5.58 g/m*3 0.94 C 11.3 km/h
Sensor: Nr:Datum:Temp:Abs-Feuchte:Windchill:Wind:
Aussen-T/F 951 01-12-2014 11:45:00 3.9 C 5.62 g/m*3 1.41 C 9.7 km/h
952 01-12-2014 11:50:00 3.8 C 5.58 g/m*3 0.94 C 11.3 km/h
953 01-12-2014 11:55:00 3.8 C 5.58 g/m*3 0.63 C 12.9 km/h
954 01-12-2014 12:00:00 3.8 C 5.58 g/m*3 0.35 C 14.5 km/h
955 01-12-2014 12:05:00 3.8 C 5.58 g/m*3 1.29 C 9.7 km/h
956 01-12-2014 12:10:00 3.8 C 5.58 g/m*3 0.94 C 11.3 km/h
957 01-12-2014 12:15:00 3.8 C 5.58 g/m*3 0.35 C 14.5 km/h
958 01-12-2014 12:20:00 3.8 C 5.58 g/m*3 1.29 C 9.7 km/h
959 01-12-2014 12:25:00 3.8 C 5.58 g/m*3 1.7 C 8.1 km/h
960 01-12-2014 12:30:00 3.8 C 5.65 g/m*3 0.94 C 11.3 km/h
961 01-12-2014 12:35:00 3.8 C 5.58 g/m*3 1.7 C 8.1 km/h
962 01-12-2014 12:40:00 3.8 C 5.65 g/m*3 0.94 C 11.3 km/h
963 01-12-2014 12:45:00 3.8 C 5.58 g/m*3 2.21 C 6.4 km/h
964 01-12-2014 12:50:00 3.8 C 5.58 g/m*3 1.7 C 8.1 km/h
965 01-12-2014 12:55:00 3.8 C 5.58 g/m*3 1.29 C 9.7 km/h
966 01-12-2014 13:00:00 3.8 C 5.65 g/m*3 3.8 C 3.2 km/h
967 01-12-2014 13:05:00 3.8 C 5.65 g/m*3 3.8 C 0 km/h
968 01-12-2014 13:10:00 3.8 C 5.65 g/m*3 3.8 C 1.6 km/h
969 01-12-2014 13:15:00 3.8 C 5.65 g/m*3 3.8 C 4.8 km/h
970 01-12-2014 13:20:00 3.8 C 5.65 g/m*3 3.8 C 3.2 km/h
971 01-12-2014 13:25:00 3.8 C 5.65 g/m*3 3.8 C 3.2 km/h
972 01-12-2014 13:30:00 3.8 C 5.65 g/m*3 3.8 C 3.2 km/h
973 01-12-2014 13:35:00 3.9 C 5.68 g/m*3 3.9 C 3.2 km/h
974 01-12-2014 13:40:00 3.9 C 5.68 g/m*3 2.32 C 6.4 km/h
975 01-12-2014 13:45:00 3.9 C 5.68 g/m*3 3.9 C 4.8 km/h
Sensor: Nr:Datum:Temp:Abs-Feuchte:Windchill:Wind:
Aussen-T/F 976 01-12-2014 13:50:00 3.8 C 5.65 g/m*3 1.29 C 9.7 km/h
977 01-12-2014 13:55:00 3.8 C 5.65 g/m*3 3.8 C 3.2 km/h
978 01-12-2014 14:00:00 3.8 C 5.65 g/m*3 2.21 C 6.4 km/h
979 01-12-2014 14:05:00 3.7 C 5.61 g/m*3 3.7 C 0 km/h
980 01-12-2014 14:10:00 3.7 C 5.61 g/m*3 3.7 C 4.8 km/h
981 01-12-2014 14:15:00 3.7 C 5.61 g/m*3 3.7 C 4.8 km/h
982 01-12-2014 14:20:00 3.7 C 5.67 g/m*3 3.7 C 4.8 km/h
983 01-12-2014 14:25:00 3.7 C 5.67 g/m*3 3.7 C 3.2 km/h
984 01-12-2014 14:30:00 3.7 C 5.67 g/m*3 2.09 C 6.4 km/h
985 01-12-2014 14:35:00 3.7 C 5.61 g/m*3 2.09 C 6.4 km/h
986 01-12-2014 14:40:00 3.7 C 5.61 g/m*3 0.51 C 12.9 km/h
987 01-12-2014 14:45:00 3.6 C 5.57 g/m*3 0.7 C 11.3 km/h
988 01-12-2014 14:50:00 3.6 C 5.57 g/m*3 1.98 C 6.4 km/h
989 01-12-2014 14:55:00 3.6 C 5.57 g/m*3 0.39 C 12.9 km/h
990 01-12-2014 15:00:00 3.5 C 5.53 g/m*3 1.34 C 8.1 km/h
991 01-12-2014 15:05:00 3.4 C 5.44 g/m*3 0.82 C 9.7 km/h
992 01-12-2014 15:10:00 3.4 C 5.5 g/m*3 1.23 C 8.1 km/h
993 01-12-2014 15:15:00 3.4 C 5.5 g/m*3 0.82 C 9.7 km/h
994 01-12-2014 15:20:00 3.4 C 5.5 g/m*3 0.82 C 9.7 km/h
995 01-12-2014 15:25:00 3.4 C 5.5 g/m*3 1.75 C 6.4 km/h
996 01-12-2014 15:30:00 3.4 C 5.5 g/m*3 1.23 C 8.1 km/h
997 01-12-2014 15:35:00 3.3 C 5.46 g/m*3 0.7 C 9.7 km/h
998 01-12-2014 15:40:00 3.3 C 5.46 g/m*3 3.3 C 4.8 km/h
999 01-12-2014 15:45:00 3.3 C 5.46 g/m*3 1.63 C 6.4 km/h
1000 01-12-2014 15:50:00 3.3 C 5.46 g/m*3 3.3 C 3.2 km/h
Sensor: Nr:Datum:Temp:Abs-Feuchte:Windchill:Wind:
Aussen-T/F 1001 01-12-2014 15:55:00 3.3 C 5.46 g/m*3 3.3 C 4.8 km/h
1002 01-12-2014 16:00:00 3.3 C 5.46 g/m*3 3.3 C 4.8 km/h
1003 01-12-2014 16:05:00 3.2 C 5.42 g/m*3 0.22 C 11.3 km/h
1004 01-12-2014 16:10:00 3.2 C 5.36 g/m*3 0.58 C 9.7 km/h
1005 01-12-2014 16:15:00 3.2 C 5.36 g/m*3 0.22 C 11.3 km/h
1006 01-12-2014 16:20:00 3.2 C 5.36 g/m*3 0.99 C 8.1 km/h
1007 01-12-2014 16:25:00 3.2 C 5.36 g/m*3 1.51 C 6.4 km/h
1008 01-12-2014 16:30:00 3.2 C 5.36 g/m*3 3.2 C 3.2 km/h
1009 01-12-2014 16:35:00 3.2 C 5.36 g/m*3 3.2 C 1.6 km/h
1010 01-12-2014 16:40:00 3.2 C 5.36 g/m*3 3.2 C 0 km/h
1011 01-12-2014 16:45:00 3.2 C 5.36 g/m*3 3.2 C 3.2 km/h
1012 01-12-2014 16:50:00 3.1 C 5.33 g/m*3 3.1 C 3.2 km/h
1013 01-12-2014 16:55:00 3.2 C 5.36 g/m*3 3.2 C 0 km/h
1014 01-12-2014 17:00:00 3.2 C 5.36 g/m*3 0.58 C 9.7 km/h
1015 01-12-2014 17:05:00 3.2 C 5.36 g/m*3 0.99 C 8.1 km/h
1016 01-12-2014 17:10:00 3.1 C 5.33 g/m*3 0.1 C 11.3 km/h
1017 01-12-2014 17:15:00 3.1 C 5.33 g/m*3 3.1 C 4.8 km/h
1018 01-12-2014 17:20:00 3.1 C 5.33 g/m*3 3.1 C 1.6 km/h
1019 01-12-2014 17:25:00 3.1 C 5.33 g/m*3 0.87 C 8.1 km/h
1020 01-12-2014 17:30:00 3 C 5.29 g/m*3 0.76 C 8.1 km/h
1021 01-12-2014 17:35:00 2.9 C 5.26 g/m*3 -0.14 C 11.3 km/h
1022 01-12-2014 17:40:00 2.9 C 5.26 g/m*3 -0.14 C 11.3 km/h
1023 01-12-2014 17:45:00 2.8 C 5.22 g/m*3 2.8 C 3.2 km/h
1024 01-12-2014 17:50:00 2.8 C 5.22 g/m*3 2.8 C 4.8 km/h
1025 01-12-2014 17:55:00 2.8 C 5.22 g/m*3 2.8 C 4.8 km/h
Sensor: Nr:Datum:Temp:Abs-Feuchte:Windchill:Wind:
Aussen-T/F 1026 01-12-2014 18:00:00 2.8 C 5.22 g/m*3 2.8 C 1.6 km/h
1027 01-12-2014 18:05:00 2.8 C 5.22 g/m*3 2.8 C 0 km/h
1028 01-12-2014 18:10:00 2.8 C 5.22 g/m*3 2.8 C 4.8 km/h
1029 01-12-2014 18:15:00 2.8 C 5.28 g/m*3 2.8 C 1.6 km/h
1030 01-12-2014 18:20:00 2.7 C 5.19 g/m*3 0.94 C 6.4 km/h
1031 01-12-2014 18:25:00 2.7 C 5.19 g/m*3 2.7 C 4.8 km/h
1032 01-12-2014 18:30:00 2.7 C 5.19 g/m*3 2.7 C 1.6 km/h
1033 01-12-2014 18:35:00 2.7 C 5.19 g/m*3 2.7 C 4.8 km/h
1034 01-12-2014 18:40:00 2.7 C 5.24 g/m*3 2.7 C 1.6 km/h
1035 01-12-2014 18:45:00 2.7 C 5.19 g/m*3 2.7 C 3.2 km/h
1036 01-12-2014 18:50:00 2.7 C 5.19 g/m*3 2.7 C 4.8 km/h
1037 01-12-2014 18:55:00 2.7 C 5.19 g/m*3 2.7 C 1.6 km/h
1038 01-12-2014 19:00:00 2.7 C 5.19 g/m*3 2.7 C 3.2 km/h
1039 01-12-2014 19:05:00 2.7 C 5.19 g/m*3 2.7 C 4.8 km/h
1040 01-12-2014 19:10:00 2.7 C 5.24 g/m*3 2.7 C 1.6 km/h
1041 01-12-2014 19:15:00 2.7 C 5.24 g/m*3 2.7 C 3.2 km/h
1042 01-12-2014 19:20:00 2.7 C 5.24 g/m*3 0.94 C 6.4 km/h
1043 01-12-2014 19:25:00 2.7 C 5.24 g/m*3 2.7 C 0 km/h
1044 01-12-2014 19:30:00 2.6 C 5.21 g/m*3 2.6 C 3.2 km/h
1045 01-12-2014 19:35:00 2.6 C 5.21 g/m*3 2.6 C 1.6 km/h
1046 01-12-2014 19:40:00 2.6 C 5.21 g/m*3 2.6 C 1.6 km/h
1047 01-12-2014 19:45:00 2.6 C 5.21 g/m*3 2.6 C 3.2 km/h
1048 01-12-2014 19:50:00 2.7 C 5.24 g/m*3 2.7 C 0 km/h
1049 01-12-2014 19:55:00 2.6 C 5.21 g/m*3 2.6 C 1.6 km/h
1050 01-12-2014 20:00:00 2.6 C 5.21 g/m*3 2.6 C 4.8 km/h
Sensor: Nr:Datum:Temp:Abs-Feuchte:Windchill:Wind:
Aussen-T/F 1051 01-12-2014 20:05:00 2.6 C 5.21 g/m*3 2.6 C 1.6 km/h
1052 01-12-2014 20:10:00 2.6 C 5.21 g/m*3 2.6 C 3.2 km/h
1053 01-12-2014 20:15:00 2.6 C 5.21 g/m*3 2.6 C 1.6 km/h
1054 01-12-2014 20:20:00 2.6 C 5.21 g/m*3 2.6 C 0 km/h
1055 01-12-2014 20:25:00 2.6 C 5.21 g/m*3 2.6 C 0 km/h
1056 01-12-2014 20:30:00 2.6 C 5.21 g/m*3 2.6 C 0 km/h
1057 01-12-2014 20:35:00 2.6 C 5.21 g/m*3 2.6 C 0 km/h
1058 01-12-2014 20:40:00 2.6 C 5.21 g/m*3 2.6 C 0 km/h
1059 01-12-2014 20:45:00 2.6 C 5.21 g/m*3 2.6 C 0 km/h
1060 01-12-2014 20:50:00 2.5 C 5.17 g/m*3 2.5 C 1.6 km/h
1061 01-12-2014 20:55:00 2.6 C 5.21 g/m*3 2.6 C 1.6 km/h
1062 01-12-2014 21:00:00 2.6 C 5.21 g/m*3 2.6 C 1.6 km/h
1063 01-12-2014 21:05:00 2.5 C 5.17 g/m*3 2.5 C 0 km/h
1064 01-12-2014 21:10:00 2.5 C 5.17 g/m*3 2.5 C 1.6 km/h
1065 01-12-2014 21:15:00 2.4 C 5.14 g/m*3 2.4 C 4.8 km/h
1066 01-12-2014 21:20:00 2.4 C 5.08 g/m*3 2.4 C 3.2 km/h
1067 01-12-2014 21:25:00 2.4 C 5.14 g/m*3 2.4 C 3.2 km/h
1068 01-12-2014 21:30:00 2.4 C 5.14 g/m*3 2.4 C 4.8 km/h
1069 01-12-2014 21:35:00 2.4 C 5.14 g/m*3 2.4 C 1.6 km/h
1070 01-12-2014 21:40:00 2.3 C 5.1 g/m*3 2.3 C 1.6 km/h
1071 01-12-2014 21:45:00 2.3 C 5.1 g/m*3 2.3 C 1.6 km/h
1072 01-12-2014 21:50:00 2.3 C 5.05 g/m*3 2.3 C 3.2 km/h
1073 01-12-2014 21:55:00 2.3 C 5.05 g/m*3 2.3 C 0 km/h
1074 01-12-2014 22:00:00 2.3 C 5.05 g/m*3 2.3 C 1.6 km/h
1075 01-12-2014 22:05:00 2.3 C 5.1 g/m*3 2.3 C 0 km/h
Sensor: Nr:Datum:Temp:Abs-Feuchte:Windchill:Wind:
Aussen-T/F 1076 01-12-2014 22:10:00 2.3 C 5.05 g/m*3 2.3 C 1.6 km/h
1077 01-12-2014 22:15:00 2.3 C 5.1 g/m*3 2.3 C 3.2 km/h
1078 01-12-2014 22:20:00 2.2 C 5.01 g/m*3 2.2 C 3.2 km/h
1079 01-12-2014 22:25:00 2.2 C 5.01 g/m*3 2.2 C 0 km/h
1080 01-12-2014 22:30:00 2.2 C 5.01 g/m*3 2.2 C 0 km/h
1081 01-12-2014 22:35:00 2.2 C 5.01 g/m*3 2.2 C 0 km/h
1082 01-12-2014 22:40:00 2.1 C 4.98 g/m*3 2.1 C 1.6 km/h
1083 01-12-2014 22:45:00 2.1 C 4.98 g/m*3 2.1 C 3.2 km/h
1084 01-12-2014 22:50:00 2.1 C 4.98 g/m*3 2.1 C 3.2 km/h
1085 01-12-2014 22:55:00 2.1 C 4.98 g/m*3 0.24 C 6.4 km/h
1086 01-12-2014 23:00:00 2.1 C 4.98 g/m*3 2.1 C 1.6 km/h
1087 01-12-2014 23:05:00 2.1 C 4.98 g/m*3 2.1 C 1.6 km/h
1088 01-12-2014 23:10:00 2.1 C 4.98 g/m*3 2.1 C 1.6 km/h
1089 01-12-2014 23:15:00 2.1 C 4.98 g/m*3 2.1 C 3.2 km/h
1090 01-12-2014 23:20:00 2.1 C 4.98 g/m*3 2.1 C 3.2 km/h
1091 01-12-2014 23:25:00 2.1 C 5.04 g/m*3 -0.3 C 8.1 km/h
1092 01-12-2014 23:30:00 2 C 4.95 g/m*3 0.13 C 6.4 km/h
1093 01-12-2014 23:35:00 2 C 4.95 g/m*3 2 C 3.2 km/h
1094 01-12-2014 23:40:00 2 C 4.95 g/m*3 -0.42 C 8.1 km/h
1095 01-12-2014 23:45:00 1.9 C 4.91 g/m*3 -0.54 C 8.1 km/h
1096 01-12-2014 23:50:00 1.9 C 4.91 g/m*3 0.01 C 6.4 km/h
1097 01-12-2014 23:55:00 1.9 C 4.91 g/m*3 1.9 C 4.8 km/h
1098 02-12-2014 00:00:00 1.9 C 4.91 g/m*3 0.01 C 6.4 km/h
1099 02-12-2014 00:05:00 1.9 C 4.97 g/m*3 1.9 C 1.6 km/h
1100 02-12-2014 00:10:00 1.9 C 4.97 g/m*3 1.9 C 0 km/h
Sensor: Nr:Datum:Temp:Abs-Feuchte:Windchill:Wind:
Aussen-T/F 1101 02-12-2014 00:15:00 1.8 C 4.93 g/m*3 1.8 C 1.6 km/h
1102 02-12-2014 00:20:00 1.8 C 4.93 g/m*3 1.8 C 0 km/h
1103 02-12-2014 00:25:00 1.8 C 4.93 g/m*3 1.8 C 3.2 km/h
1104 02-12-2014 00:30:00 1.8 C 4.93 g/m*3 1.8 C 3.2 km/h
1105 02-12-2014 00:35:00 1.8 C 4.93 g/m*3 1.8 C 1.6 km/h
1106 02-12-2014 00:40:00 1.8 C 4.93 g/m*3 1.8 C 0 km/h
1107 02-12-2014 00:45:00 1.8 C 4.93 g/m*3 1.8 C 1.6 km/h
1108 02-12-2014 00:50:00 1.8 C 4.93 g/m*3 1.8 C 1.6 km/h
1109 02-12-2014 00:55:00 1.8 C 4.93 g/m*3 1.8 C 1.6 km/h
1110 02-12-2014 01:00:00 1.8 C 4.93 g/m*3 1.8 C 0 km/h
1111 02-12-2014 01:05:00 1.8 C 4.99 g/m*3 1.8 C 0 km/h
1112 02-12-2014 01:10:00 1.8 C 4.99 g/m*3 1.8 C 0 km/h
1113 02-12-2014 01:15:00 1.8 C 4.99 g/m*3 1.8 C 0 km/h
1114 02-12-2014 01:20:00 1.8 C 4.99 g/m*3 1.8 C 0 km/h
1115 02-12-2014 01:25:00 1.8 C 4.99 g/m*3 1.8 C 0 km/h
1116 02-12-2014 01:30:00 1.8 C 4.99 g/m*3 1.8 C 0 km/h
1117 02-12-2014 01:35:00 1.7 C 4.95 g/m*3 1.7 C 0 km/h
1118 02-12-2014 01:40:00 1.7 C 4.95 g/m*3 1.7 C 0 km/h
1119 02-12-2014 01:45:00 1.7 C 5.01 g/m*3 1.7 C 0 km/h
1120 02-12-2014 01:50:00 1.7 C 5.01 g/m*3 1.7 C 0 km/h
1121 02-12-2014 01:55:00 1.7 C 5.01 g/m*3 1.7 C 1.6 km/h
1122 02-12-2014 02:00:00 1.7 C 5.01 g/m*3 1.7 C 0 km/h
1123 02-12-2014 02:05:00 1.7 C 5.01 g/m*3 1.7 C 0 km/h
1124 02-12-2014 02:10:00 1.7 C 5.01 g/m*3 1.7 C 1.6 km/h
1125 02-12-2014 02:15:00 1.7 C 5.01 g/m*3 1.7 C 0 km/h
Sensor: Nr:Datum:Temp:Abs-Feuchte:Windchill:Wind:
Aussen-T/F 1126 02-12-2014 02:20:00 1.7 C 5.01 g/m*3 1.7 C 1.6 km/h
1127 02-12-2014 02:25:00 1.7 C 5.01 g/m*3 1.7 C 0 km/h
1128 02-12-2014 02:30:00 1.7 C 5.01 g/m*3 1.7 C 0 km/h
1129 02-12-2014 02:35:00 1.7 C 5.01 g/m*3 1.7 C 0 km/h
1130 02-12-2014 02:40:00 1.7 C 5.01 g/m*3 1.7 C 1.6 km/h
1131 02-12-2014 02:45:00 1.7 C 5.01 g/m*3 1.7 C 0 km/h
1132 02-12-2014 02:50:00 1.7 C 5.01 g/m*3 1.7 C 1.6 km/h
1133 02-12-2014 02:55:00 1.7 C 5.01 g/m*3 1.7 C 3.2 km/h
1134 02-12-2014 03:00:00 1.7 C 5.01 g/m*3 1.7 C 4.8 km/h
1135 02-12-2014 03:05:00 1.7 C 5.06 g/m*3 1.7 C 3.2 km/h
1136 02-12-2014 03:10:00 1.7 C 5.06 g/m*3 1.7 C 0 km/h
1137 02-12-2014 03:15:00 1.7 C 5.06 g/m*3 1.7 C 3.2 km/h
1138 02-12-2014 03:20:00 1.7 C 5.06 g/m*3 1.7 C 0 km/h
1139 02-12-2014 03:25:00 1.7 C 5.06 g/m*3 1.7 C 0 km/h
1140 02-12-2014 03:30:00 1.7 C 5.06 g/m*3 1.7 C 3.2 km/h
1141 02-12-2014 03:35:00 1.6 C 5.03 g/m*3 1.6 C 3.2 km/h
1142 02-12-2014 03:40:00 1.6 C 5.08 g/m*3 1.6 C 4.8 km/h
1143 02-12-2014 03:45:00 1.6 C 5.08 g/m*3 -0.33 C 6.4 km/h
1144 02-12-2014 03:50:00 1.6 C 5.08 g/m*3 1.6 C 4.8 km/h
1145 02-12-2014 03:55:00 1.6 C 5.08 g/m*3 1.6 C 4.8 km/h
1146 02-12-2014 04:00:00 1.6 C 5.08 g/m*3 1.6 C 3.2 km/h
1147 02-12-2014 04:05:00 1.6 C 5.08 g/m*3 -0.33 C 6.4 km/h
1148 02-12-2014 04:10:00 1.6 C 5.08 g/m*3 1.6 C 1.6 km/h
1149 02-12-2014 04:15:00 1.6 C 5.08 g/m*3 1.6 C 3.2 km/h
1150 02-12-2014 04:20:00 1.6 C 5.08 g/m*3 1.6 C 4.8 km/h
Sensor: Nr:Datum:Temp:Abs-Feuchte:Windchill:Wind:
Aussen-T/F 1151 02-12-2014 04:25:00 1.5 C 5.05 g/m*3 1.5 C 4.8 km/h
1152 02-12-2014 04:30:00 1.5 C 5.05 g/m*3 1.5 C 4.8 km/h
1153 02-12-2014 04:35:00 1.4 C 5.01 g/m*3 1.4 C 4.8 km/h
1154 02-12-2014 04:40:00 1.4 C 4.96 g/m*3 1.4 C 4.8 km/h
1155 02-12-2014 04:45:00 1.4 C 4.96 g/m*3 1.4 C 1.6 km/h
1156 02-12-2014 04:50:00 1.4 C 4.96 g/m*3 1.4 C 1.6 km/h
1157 02-12-2014 04:55:00 1.4 C 4.96 g/m*3 1.4 C 3.2 km/h
1158 02-12-2014 05:00:00 1.4 C 4.96 g/m*3 1.4 C 1.6 km/h
1159 02-12-2014 05:05:00 1.4 C 4.96 g/m*3 1.4 C 0 km/h
1160 02-12-2014 05:10:00 1.4 C 4.96 g/m*3 1.4 C 3.2 km/h
1161 02-12-2014 05:15:00 1.4 C 4.96 g/m*3 1.4 C 1.6 km/h
1162 02-12-2014 05:20:00 1.4 C 4.96 g/m*3 1.4 C 1.6 km/h
1163 02-12-2014 05:25:00 1.3 C 4.98 g/m*3 1.3 C 3.2 km/h
1164 02-12-2014 05:30:00 1.3 C 4.98 g/m*3 1.3 C 0 km/h
1165 02-12-2014 05:35:00 1.3 C 4.98 g/m*3 1.3 C 0 km/h
1166 02-12-2014 05:40:00 1.3 C 4.98 g/m*3 1.3 C 0 km/h
1167 02-12-2014 05:45:00 1.3 C 4.98 g/m*3 1.3 C 0 km/h
1168 02-12-2014 05:50:00 1.3 C 4.98 g/m*3 1.3 C 1.6 km/h
1169 02-12-2014 05:55:00 1.3 C 4.98 g/m*3 1.3 C 1.6 km/h
1170 02-12-2014 06:00:00 1.2 C 4.95 g/m*3 1.2 C 3.2 km/h
1171 02-12-2014 06:05:00 1.2 C 4.95 g/m*3 1.2 C 0 km/h
1172 02-12-2014 06:10:00 1.2 C 4.95 g/m*3 1.2 C 0 km/h
1173 02-12-2014 06:15:00 1.2 C 4.95 g/m*3 1.2 C 0 km/h
1174 02-12-2014 06:20:00 1.2 C 5 g/m*3 1.2 C 1.6 km/h
1175 02-12-2014 06:25:00 1.2 C 5 g/m*3 1.2 C 0 km/h
Sensor: Nr:Datum:Temp:Abs-Feuchte:Windchill:Wind:
Aussen-T/F 1176 02-12-2014 06:30:00 1.2 C 5 g/m*3 1.2 C 0 km/h
1177 02-12-2014 06:35:00 1.2 C 5 g/m*3 1.2 C 0 km/h
1178 02-12-2014 06:40:00 1.2 C 5 g/m*3 1.2 C 0 km/h
1179 02-12-2014 06:45:00 1.2 C 5 g/m*3 1.2 C 0 km/h
1180 02-12-2014 06:50:00 1.2 C 5 g/m*3 1.2 C 0 km/h
1181 02-12-2014 06:55:00 1.2 C 5 g/m*3 1.2 C 0 km/h
1182 02-12-2014 07:00:00 1.2 C 5 g/m*3 1.2 C 1.6 km/h
1183 02-12-2014 07:05:00 1.2 C 5 g/m*3 1.2 C 1.6 km/h
1184 02-12-2014 07:10:00 1.2 C 5 g/m*3 1.2 C 0 km/h
1185 02-12-2014 07:15:00 1.2 C 5 g/m*3 1.2 C 1.6 km/h
1186 02-12-2014 07:20:00 1.2 C 5 g/m*3 1.2 C 0 km/h
1187 02-12-2014 07:25:00 1.3 C 5.03 g/m*3 1.3 C 0 km/h
1188 02-12-2014 07:30:00 1.3 C 5.03 g/m*3 1.3 C 0 km/h
1189 02-12-2014 07:35:00 1.2 C 5 g/m*3 1.2 C 0 km/h
1190 02-12-2014 07:40:00 1.2 C 4.95 g/m*3 1.2 C 3.2 km/h
1191 02-12-2014 07:45:00 1.2 C 4.95 g/m*3 1.2 C 0 km/h
1192 02-12-2014 07:50:00 1.2 C 4.95 g/m*3 1.2 C 4.8 km/h
1193 02-12-2014 07:55:00 1.2 C 4.95 g/m*3 1.2 C 0 km/h
1194 02-12-2014 08:00:00 1.2 C 4.95 g/m*3 1.2 C 0 km/h
1195 02-12-2014 08:05:00 1.2 C 4.95 g/m*3 1.2 C 0 km/h
1196 02-12-2014 08:10:00 1.2 C 4.95 g/m*3 1.2 C 0 km/h
1197 02-12-2014 08:15:00 1.2 C 4.95 g/m*3 1.2 C 0 km/h
1198 02-12-2014 08:20:00 1.2 C 4.95 g/m*3 1.2 C 0 km/h
1199 02-12-2014 08:25:00 1.2 C 4.95 g/m*3 1.2 C 0 km/h
1200 02-12-2014 08:30:00 1.2 C 4.95 g/m*3 1.2 C 0 km/h
Sensor: Nr:Datum:Temp:Abs-Feuchte:Windchill:Wind:
Aussen-T/F 1201 02-12-2014 08:35:00 1.2 C 4.95 g/m*3 1.2 C 0 km/h
1202 02-12-2014 08:40:00 1.2 C 4.95 g/m*3 1.2 C 0 km/h
1203 02-12-2014 08:45:00 1.2 C 4.95 g/m*3 1.2 C 0 km/h
1204 02-12-2014 08:50:00 1.2 C 4.95 g/m*3 1.2 C 0 km/h
1205 02-12-2014 08:55:00 1.2 C 4.95 g/m*3 1.2 C 0 km/h
1206 02-12-2014 09:00:00 1.2 C 4.95 g/m*3 1.2 C 0 km/h
1207 02-12-2014 09:05:00 1.2 C 4.95 g/m*3 1.2 C 0 km/h
1208 02-12-2014 09:10:00 1.2 C 4.95 g/m*3 1.2 C 0 km/h
1209 02-12-2014 09:15:00 1.2 C 4.95 g/m*3 1.2 C 0 km/h
1210 02-12-2014 09:20:00 1.3 C 4.98 g/m*3 1.3 C 0 km/h
1211 02-12-2014 09:25:00 1.3 C 4.98 g/m*3 1.3 C 1.6 km/h
1212 02-12-2014 09:30:00 1.3 C 4.98 g/m*3 1.3 C 3.2 km/h
1213 02-12-2014 09:35:00 1.3 C 4.93 g/m*3 1.3 C 0 km/h
1214 02-12-2014 09:40:00 1.3 C 4.93 g/m*3 1.3 C 0 km/h
1215 02-12-2014 09:45:00 1.3 C 4.93 g/m*3 1.3 C 1.6 km/h
1216 02-12-2014 09:50:00 1.4 C 4.96 g/m*3 1.4 C 0 km/h
1217 02-12-2014 09:55:00 1.4 C 4.96 g/m*3 1.4 C 3.2 km/h
1218 02-12-2014 10:00:00 1.4 C 4.96 g/m*3 1.4 C 1.6 km/h
1219 02-12-2014 10:05:00 1.4 C 4.96 g/m*3 1.4 C 3.2 km/h
1220 02-12-2014 10:10:00 1.5 C 4.94 g/m*3 1.5 C 3.2 km/h
1221 02-12-2014 10:15:00 1.5 C 4.94 g/m*3 -0.45 C 6.4 km/h
1222 02-12-2014 10:20:00 1.5 C 4.94 g/m*3 1.5 C 3.2 km/h
1223 02-12-2014 10:25:00 1.6 C 4.97 g/m*3 1.6 C 1.6 km/h
1224 02-12-2014 10:30:00 1.6 C 4.97 g/m*3 1.6 C 3.2 km/h
1225 02-12-2014 10:35:00 1.6 C 4.97 g/m*3 1.6 C 1.6 km/h
Sensor: Nr:Datum:Temp:Abs-Feuchte:Windchill:Wind:
Aussen-T/F 1226 02-12-2014 10:40:00 1.6 C 4.97 g/m*3 1.6 C 0 km/h
1227 02-12-2014 10:45:00 1.7 C 5.01 g/m*3 1.7 C 0 km/h
1228 02-12-2014 10:50:00 1.7 C 4.95 g/m*3 1.7 C 1.6 km/h
1229 02-12-2014 10:55:00 1.7 C 4.95 g/m*3 1.7 C 0 km/h
1230 02-12-2014 11:00:00 1.7 C 4.95 g/m*3 1.7 C 4.8 km/h
1231 02-12-2014 11:05:00 1.8 C 4.93 g/m*3 1.8 C 4.8 km/h
1232 02-12-2014 11:10:00 1.8 C 4.93 g/m*3 -0.1 C 6.4 km/h
1233 02-12-2014 11:15:00 1.8 C 4.93 g/m*3 1.8 C 3.2 km/h
1234 02-12-2014 11:20:00 1.9 C 4.91 g/m*3 1.9 C 4.8 km/h
1235 02-12-2014 11:25:00 1.9 C 4.91 g/m*3 0.01 C 6.4 km/h
1236 02-12-2014 11:30:00 2 C 4.95 g/m*3 0.13 C 6.4 km/h
1237 02-12-2014 11:35:00 2.1 C 4.92 g/m*3 2.1 C 3.2 km/h
1238 02-12-2014 11:40:00 2.1 C 4.92 g/m*3 2.1 C 3.2 km/h
1239 02-12-2014 11:45:00 2.1 C 4.92 g/m*3 2.1 C 3.2 km/h
1240 02-12-2014 11:50:00 2.1 C 4.92 g/m*3 2.1 C 1.6 km/h
1241 02-12-2014 11:55:00 2 C 4.89 g/m*3 2 C 3.2 km/h
1242 02-12-2014 12:00:00 2.1 C 4.92 g/m*3 2.1 C 3.2 km/h
1243 02-12-2014 12:05:00 2 C 4.89 g/m*3 2 C 4.8 km/h
1244 02-12-2014 12:10:00 2 C 4.89 g/m*3 2 C 4.8 km/h
1245 02-12-2014 12:15:00 2 C 4.83 g/m*3 2 C 1.6 km/h
1246 02-12-2014 12:20:00 1.9 C 4.86 g/m*3 1.9 C 1.6 km/h
1247 02-12-2014 12:25:00 2 C 4.83 g/m*3 2 C 3.2 km/h
1248 02-12-2014 12:30:00 2 C 4.83 g/m*3 2 C 1.6 km/h
1249 02-12-2014 12:35:00 2 C 4.83 g/m*3 2 C 1.6 km/h
1250 02-12-2014 12:40:00 2 C 4.83 g/m*3 2 C 4.8 km/h
Sensor: Nr:Datum:Temp:Abs-Feuchte:Windchill:Wind:
Aussen-T/F 1251 02-12-2014 12:45:00 2.1 C 4.87 g/m*3 0.24 C 6.4 km/h
1252 02-12-2014 12:50:00 2.1 C 4.87 g/m*3 2.1 C 4.8 km/h
1253 02-12-2014 12:55:00 2.1 C 4.81 g/m*3 0.24 C 6.4 km/h
1254 02-12-2014 13:00:00 2.1 C 4.81 g/m*3 -0.3 C 8.1 km/h
1255 02-12-2014 13:05:00 2.1 C 4.81 g/m*3 2.1 C 3.2 km/h
1256 02-12-2014 13:10:00 2.2 C 4.9 g/m*3 0.36 C 6.4 km/h
1257 02-12-2014 13:15:00 2.2 C 4.84 g/m*3 0.36 C 6.4 km/h
1258 02-12-2014 13:20:00 2.2 C 4.9 g/m*3 0.36 C 6.4 km/h
1259 02-12-2014 13:25:00 2.2 C 4.84 g/m*3 0.36 C 6.4 km/h
1260 02-12-2014 13:30:00 2.2 C 4.84 g/m*3 2.2 C 3.2 km/h
1261 02-12-2014 13:35:00 2.1 C 4.81 g/m*3 0.24 C 6.4 km/h
1262 02-12-2014 13:40:00 2.1 C 4.81 g/m*3 -0.3 C 8.1 km/h
1263 02-12-2014 13:45:00 2.1 C 4.81 g/m*3 0.24 C 6.4 km/h
1264 02-12-2014 13:50:00 2.1 C 4.81 g/m*3 0.24 C 6.4 km/h
1265 02-12-2014 13:55:00 2.1 C 4.81 g/m*3 2.1 C 4.8 km/h
1266 02-12-2014 14:00:00 2.1 C 4.81 g/m*3 -0.3 C 8.1 km/h
1267 02-12-2014 14:05:00 2.1 C 4.81 g/m*3 0.24 C 6.4 km/h
1268 02-12-2014 14:10:00 2.1 C 4.81 g/m*3 -0.3 C 8.1 km/h
1269 02-12-2014 14:15:00 2.1 C 4.81 g/m*3 0.24 C 6.4 km/h
1270 02-12-2014 14:20:00 2.1 C 4.76 g/m*3 2.1 C 3.2 km/h
1271 02-12-2014 14:25:00 2.1 C 4.81 g/m*3 0.24 C 6.4 km/h
1272 02-12-2014 14:30:00 2.1 C 4.76 g/m*3 2.1 C 3.2 km/h
1273 02-12-2014 14:35:00 2.1 C 4.76 g/m*3 -0.3 C 8.1 km/h
1274 02-12-2014 14:40:00 2.1 C 4.76 g/m*3 -0.3 C 8.1 km/h
1275 02-12-2014 14:45:00 2.1 C 4.81 g/m*3 2.1 C 3.2 km/h
Sensor: Nr:Datum:Temp:Abs-Feuchte:Windchill:Wind:
Aussen-T/F 1276 02-12-2014 14:50:00 2.1 C 4.81 g/m*3 2.1 C 3.2 km/h
1277 02-12-2014 14:55:00 2.1 C 4.81 g/m*3 2.1 C 4.8 km/h
1278 02-12-2014 15:00:00 2.2 C 4.84 g/m*3 2.2 C 3.2 km/h
1279 02-12-2014 15:05:00 2.2 C 4.84 g/m*3 2.2 C 0 km/h
1280 02-12-2014 15:10:00 2.2 C 4.84 g/m*3 2.2 C 4.8 km/h
1281 02-12-2014 15:15:00 2.2 C 4.84 g/m*3 2.2 C 3.2 km/h
1282 02-12-2014 15:20:00 2.2 C 4.84 g/m*3 2.2 C 0 km/h
1283 02-12-2014 15:25:00 2.2 C 4.84 g/m*3 2.2 C 0 km/h
1284 02-12-2014 15:30:00 2.2 C 4.84 g/m*3 2.2 C 3.2 km/h
1285 02-12-2014 15:35:00 2.2 C 4.84 g/m*3 2.2 C 3.2 km/h
1286 02-12-2014 15:40:00 2.2 C 4.84 g/m*3 2.2 C 3.2 km/h
1287 02-12-2014 15:45:00 2.2 C 4.84 g/m*3 2.2 C 3.2 km/h
1288 02-12-2014 15:50:00 2.2 C 4.84 g/m*3 2.2 C 3.2 km/h
1289 02-12-2014 15:55:00 2.2 C 4.84 g/m*3 2.2 C 1.6 km/h
1290 02-12-2014 16:00:00 2.2 C 4.84 g/m*3 2.2 C 1.6 km/h
1291 02-12-2014 16:05:00 2.2 C 4.84 g/m*3 2.2 C 0 km/h
1292 02-12-2014 16:10:00 2.2 C 4.84 g/m*3 2.2 C 3.2 km/h
1293 02-12-2014 16:15:00 2.2 C 4.84 g/m*3 2.2 C 3.2 km/h
1294 02-12-2014 16:20:00 2.2 C 4.84 g/m*3 2.2 C 4.8 km/h
1295 02-12-2014 16:25:00 2.2 C 4.84 g/m*3 2.2 C 0 km/h
1296 02-12-2014 16:30:00 2.2 C 4.84 g/m*3 2.2 C 0 km/h
1297 02-12-2014 16:35:00 2.2 C 4.84 g/m*3 2.2 C 0 km/h
1298 02-12-2014 16:40:00 2.2 C 4.84 g/m*3 2.2 C 0 km/h
1299 02-12-2014 16:45:00 2.2 C 4.84 g/m*3 2.2 C 0 km/h
1300 02-12-2014 16:50:00 2.2 C 4.84 g/m*3 2.2 C 0 km/h
Sensor: Nr:Datum:Temp:Abs-Feuchte:Windchill:Wind:
Aussen-T/F 1301 02-12-2014 16:55:00 2.2 C 4.84 g/m*3 2.2 C 1.6 km/h
1302 02-12-2014 17:00:00 2.2 C 4.84 g/m*3 2.2 C 0 km/h
1303 02-12-2014 17:05:00 2.2 C 4.84 g/m*3 2.2 C 0 km/h
1304 02-12-2014 18:20:00 2.1 C 4.92 g/m*3 2.1 C 0 km/h
1305 02-12-2014 18:25:00 2 C 4.89 g/m*3 2 C 0 km/h
1306 02-12-2014 18:30:00 2 C 4.89 g/m*3 2 C 0 km/h
1307 02-12-2014 18:35:00 2 C 4.89 g/m*3 2 C 0 km/h
1308 02-12-2014 18:40:00 2 C 4.89 g/m*3 2 C 0 km/h
1309 02-12-2014 18:45:00 2 C 4.89 g/m*3 2 C 1.6 km/h
1310 02-12-2014 18:50:00 2 C 4.95 g/m*3 2 C 3.2 km/h
1311 02-12-2014 18:55:00 1.9 C 4.91 g/m*3 1.9 C 0 km/h
1312 02-12-2014 19:00:00 1.9 C 4.97 g/m*3 1.9 C 0 km/h
1313 02-12-2014 19:05:00 1.9 C 4.97 g/m*3 1.9 C 0 km/h
1314 02-12-2014 19:10:00 1.9 C 4.97 g/m*3 1.9 C 0 km/h
1315 02-12-2014 19:15:00 1.9 C 4.97 g/m*3 1.9 C 0 km/h
1316 02-12-2014 20:30:00 1.5 C 4.94 g/m*3 1.5 C 0 km/h
1317 02-12-2014 20:35:00 1.5 C 4.94 g/m*3 1.5 C 1.6 km/h
1318 02-12-2014 20:40:00 1.4 C 4.96 g/m*3 1.4 C 0 km/h
1319 02-12-2014 20:45:00 1.4 C 4.96 g/m*3 1.4 C 0 km/h
1320 02-12-2014 20:50:00 1.4 C 4.96 g/m*3 1.4 C 0 km/h
1321 02-12-2014 20:55:00 1.3 C 4.93 g/m*3 1.3 C 0 km/h
1322 02-12-2014 21:00:00 1.3 C 4.93 g/m*3 1.3 C 0 km/h
1323 02-12-2014 21:05:00 1.3 C 4.98 g/m*3 1.3 C 0 km/h
1324 02-12-2014 21:10:00 1.3 C 4.98 g/m*3 1.3 C 0 km/h
1325 02-12-2014 21:15:00 1.3 C 4.98 g/m*3 1.3 C 0 km/h
Sensor: Nr:Datum:Temp:Abs-Feuchte:Windchill:Wind:
Aussen-T/F 1326 02-12-2014 21:20:00 1.3 C 4.98 g/m*3 1.3 C 0 km/h
1327 02-12-2014 21:25:00 1.2 C 4.95 g/m*3 1.2 C 0 km/h
1328 02-12-2014 21:30:00 1.2 C 5 g/m*3 1.2 C 0 km/h
1329 02-12-2014 21:35:00 1.2 C 5 g/m*3 1.2 C 0 km/h
1330 02-12-2014 21:40:00 1.2 C 5 g/m*3 1.2 C 0 km/h
1331 02-12-2014 21:45:00 1.2 C 5 g/m*3 1.2 C 0 km/h
1332 02-12-2014 21:50:00 1.1 C 4.96 g/m*3 1.1 C 0 km/h
1333 02-12-2014 21:55:00 1.1 C 4.96 g/m*3 1.1 C 0 km/h
1334 02-12-2014 22:00:00 1.1 C 4.96 g/m*3 1.1 C 0 km/h
1335 02-12-2014 22:05:00 1.1 C 4.96 g/m*3 1.1 C 0 km/h
1336 02-12-2014 22:10:00 1.1 C 4.96 g/m*3 1.1 C 0 km/h
1337 02-12-2014 22:15:00 1.1 C 4.96 g/m*3 1.1 C 0 km/h
1338 02-12-2014 22:20:00 1.1 C 5.02 g/m*3 1.1 C 0 km/h
1339 02-12-2014 22:25:00 1.1 C 5.02 g/m*3 1.1 C 0 km/h
1340 02-12-2014 22:30:00 1.1 C 5.02 g/m*3 1.1 C 0 km/h
1341 02-12-2014 22:35:00 1.1 C 5.02 g/m*3 1.1 C 0 km/h
1342 02-12-2014 22:40:00 1.2 C 5.05 g/m*3 1.2 C 0 km/h
1343 02-12-2014 22:45:00 1.2 C 5.05 g/m*3 1.2 C 0 km/h
1344 02-12-2014 22:50:00 1.2 C 5.05 g/m*3 1.2 C 0 km/h
1345 02-12-2014 22:55:00 1.2 C 5.05 g/m*3 1.2 C 0 km/h
1346 02-12-2014 23:00:00 1.2 C 5.05 g/m*3 1.2 C 0 km/h
1347 02-12-2014 23:05:00 1.2 C 5.05 g/m*3 1.2 C 0 km/h
1348 02-12-2014 23:10:00 1.2 C 5.05 g/m*3 1.2 C 0 km/h
1349 02-12-2014 23:15:00 1.2 C 5.05 g/m*3 1.2 C 0 km/h
1350 02-12-2014 23:20:00 1.2 C 5.05 g/m*3 1.2 C 0 km/h
Sensor: Nr:Datum:Temp:Abs-Feuchte:Windchill:Wind:
Aussen-T/F 1351 02-12-2014 23:25:00 1.2 C 5.05 g/m*3 1.2 C 0 km/h
1352 02-12-2014 23:30:00 1.2 C 5.05 g/m*3 1.2 C 0 km/h
1353 02-12-2014 23:35:00 1.2 C 5.1 g/m*3 1.2 C 0 km/h
1354 02-12-2014 23:40:00 1.2 C 5.1 g/m*3 1.2 C 0 km/h
1355 02-12-2014 23:45:00 1.2 C 5.1 g/m*3 1.2 C 1.6 km/h
1356 02-12-2014 23:50:00 1.3 C 5.14 g/m*3 1.3 C 0 km/h
1357 02-12-2014 23:55:00 1.3 C 5.14 g/m*3 1.3 C 0 km/h
1358 03-12-2014 00:00:00 1.3 C 5.14 g/m*3 1.3 C 0 km/h
1359 03-12-2014 00:05:00 1.3 C 5.14 g/m*3 1.3 C 0 km/h
1360 03-12-2014 00:10:00 1.2 C 5.1 g/m*3 1.2 C 0 km/h
1361 03-12-2014 00:15:00 1.2 C 5.1 g/m*3 1.2 C 0 km/h
1362 03-12-2014 00:20:00 1.2 C 5.1 g/m*3 1.2 C 0 km/h
1363 03-12-2014 00:25:00 1.3 C 5.14 g/m*3 1.3 C 0 km/h
1364 03-12-2014 00:30:00 1.3 C 5.14 g/m*3 1.3 C 1.6 km/h
1365 03-12-2014 00:35:00 1.3 C 5.14 g/m*3 1.3 C 1.6 km/h
1366 03-12-2014 00:40:00 1.3 C 5.14 g/m*3 1.3 C 1.6 km/h
1367 03-12-2014 00:45:00 1.3 C 5.14 g/m*3 1.3 C 0 km/h
1368 03-12-2014 00:50:00 1.3 C 5.14 g/m*3 1.3 C 0 km/h
1369 03-12-2014 00:55:00 1.3 C 5.14 g/m*3 1.3 C 0 km/h
1370 03-12-2014 01:00:00 1.3 C 5.14 g/m*3 1.3 C 0 km/h
1371 03-12-2014 01:05:00 1.3 C 5.14 g/m*3 1.3 C 0 km/h
1372 03-12-2014 01:10:00 1.3 C 5.14 g/m*3 1.3 C 0 km/h
1373 03-12-2014 01:15:00 1.4 C 5.17 g/m*3 1.4 C 0 km/h
1374 03-12-2014 01:20:00 1.4 C 5.17 g/m*3 1.4 C 0 km/h
1375 03-12-2014 01:25:00 1.4 C 5.17 g/m*3 1.4 C 0 km/h
Sensor: Nr:Datum:Temp:Abs-Feuchte:Windchill:Wind:
Aussen-T/F 1376 03-12-2014 01:30:00 1.4 C 5.17 g/m*3 1.4 C 0 km/h
1377 03-12-2014 01:35:00 1.3 C 5.09 g/m*3 1.3 C 1.6 km/h
1378 03-12-2014 01:40:00 1.3 C 5.14 g/m*3 1.3 C 1.6 km/h
1379 03-12-2014 01:45:00 1.3 C 5.09 g/m*3 1.3 C 0 km/h
1380 03-12-2014 01:50:00 1.3 C 5.09 g/m*3 1.3 C 0 km/h
1381 03-12-2014 01:55:00 1.3 C 5.09 g/m*3 1.3 C 0 km/h
1382 03-12-2014 02:00:00 1.3 C 5.09 g/m*3 1.3 C 0 km/h
1383 03-12-2014 02:05:00 1.3 C 5.09 g/m*3 1.3 C 0 km/h
1384 03-12-2014 02:10:00 1.4 C 5.12 g/m*3 1.4 C 0 km/h
1385 03-12-2014 02:15:00 1.4 C 5.12 g/m*3 1.4 C 0 km/h
1386 03-12-2014 02:20:00 1.4 C 5.12 g/m*3 1.4 C 0 km/h
1387 03-12-2014 02:25:00 1.5 C 5.16 g/m*3 1.5 C 0 km/h
1388 03-12-2014 02:30:00 1.4 C 5.12 g/m*3 1.4 C 0 km/h
1389 03-12-2014 02:35:00 1.4 C 5.12 g/m*3 1.4 C 0 km/h
1390 03-12-2014 02:40:00 1.5 C 5.16 g/m*3 1.5 C 0 km/h
1391 03-12-2014 02:45:00 1.5 C 5.16 g/m*3 1.5 C 0 km/h
1392 03-12-2014 02:50:00 1.5 C 5.16 g/m*3 1.5 C 0 km/h
1393 03-12-2014 02:55:00 1.5 C 5.16 g/m*3 1.5 C 0 km/h
1394 03-12-2014 03:00:00 1.6 C 5.19 g/m*3 1.6 C 0 km/h
1395 03-12-2014 03:05:00 1.6 C 5.19 g/m*3 1.6 C 0 km/h
1396 03-12-2014 03:10:00 1.6 C 5.19 g/m*3 1.6 C 0 km/h
1397 03-12-2014 03:15:00 1.6 C 5.25 g/m*3 1.6 C 0 km/h
1398 03-12-2014 03:20:00 1.6 C 5.25 g/m*3 1.6 C 0 km/h
1399 03-12-2014 03:25:00 1.6 C 5.25 g/m*3 1.6 C 0 km/h
1400 03-12-2014 03:30:00 1.6 C 5.25 g/m*3 1.6 C 0 km/h
Sensor: Nr:Datum:Temp:Abs-Feuchte:Windchill:Wind:
Aussen-T/F 1401 03-12-2014 03:35:00 1.6 C 5.25 g/m*3 1.6 C 0 km/h
1402 03-12-2014 03:40:00 1.5 C 5.21 g/m*3 1.5 C 0 km/h
1403 03-12-2014 03:45:00 1.5 C 5.21 g/m*3 1.5 C 0 km/h
1404 03-12-2014 03:50:00 1.5 C 5.21 g/m*3 1.5 C 0 km/h
1405 03-12-2014 03:55:00 1.5 C 5.21 g/m*3 1.5 C 0 km/h
1406 03-12-2014 04:00:00 1.4 C 5.17 g/m*3 1.4 C 0 km/h
1407 03-12-2014 04:05:00 1.4 C 5.12 g/m*3 1.4 C 0 km/h
1408 03-12-2014 04:10:00 1.4 C 5.12 g/m*3 1.4 C 0 km/h
1409 03-12-2014 04:15:00 1.4 C 5.12 g/m*3 1.4 C 0 km/h
1410 03-12-2014 04:20:00 1.4 C 5.17 g/m*3 1.4 C 0 km/h
1411 03-12-2014 04:25:00 1.4 C 5.17 g/m*3 1.4 C 0 km/h
1412 03-12-2014 04:30:00 1.5 C 5.21 g/m*3 1.5 C 0 km/h
1413 03-12-2014 04:35:00 1.5 C 5.21 g/m*3 1.5 C 0 km/h
1414 03-12-2014 04:40:00 1.5 C 5.21 g/m*3 1.5 C 0 km/h
1415 03-12-2014 04:45:00 1.6 C 5.25 g/m*3 1.6 C 0 km/h
1416 03-12-2014 04:50:00 1.6 C 5.25 g/m*3 1.6 C 0 km/h
1417 03-12-2014 04:55:00 1.6 C 5.25 g/m*3 1.6 C 0 km/h
1418 03-12-2014 05:00:00 1.6 C 5.25 g/m*3 1.6 C 0 km/h
1419 03-12-2014 05:05:00 1.7 C 5.28 g/m*3 1.7 C 0 km/h
1420 03-12-2014 05:10:00 1.7 C 5.28 g/m*3 1.7 C 0 km/h
1421 03-12-2014 05:15:00 1.7 C 5.28 g/m*3 1.7 C 0 km/h
1422 03-12-2014 05:20:00 1.7 C 5.28 g/m*3 1.7 C 0 km/h
1423 03-12-2014 05:25:00 1.7 C 5.28 g/m*3 1.7 C 0 km/h
1424 03-12-2014 05:30:00 1.8 C 5.32 g/m*3 1.8 C 0 km/h
1425 03-12-2014 05:35:00 1.8 C 5.32 g/m*3 1.8 C 0 km/h
Sensor: Nr:Datum:Temp:Abs-Feuchte:Windchill:Wind:
Aussen-T/F 1426 03-12-2014 05:40:00 1.8 C 5.32 g/m*3 1.8 C 0 km/h
1427 03-12-2014 05:45:00 1.8 C 5.32 g/m*3 1.8 C 0 km/h
1428 03-12-2014 05:50:00 1.7 C 5.28 g/m*3 1.7 C 0 km/h
1429 03-12-2014 05:55:00 1.7 C 5.28 g/m*3 1.7 C 0 km/h
1430 03-12-2014 06:00:00 1.8 C 5.32 g/m*3 1.8 C 0 km/h
1431 03-12-2014 06:05:00 1.8 C 5.32 g/m*3 1.8 C 0 km/h
1432 03-12-2014 06:10:00 1.8 C 5.32 g/m*3 1.8 C 0 km/h
1433 03-12-2014 06:15:00 1.8 C 5.32 g/m*3 1.8 C 0 km/h
1434 03-12-2014 06:20:00 1.8 C 5.32 g/m*3 1.8 C 0 km/h
1435 03-12-2014 06:25:00 1.8 C 5.32 g/m*3 1.8 C 0 km/h
1436 03-12-2014 06:30:00 1.8 C 5.32 g/m*3 1.8 C 0 km/h
1437 03-12-2014 06:35:00 1.8 C 5.32 g/m*3 1.8 C 0 km/h
1438 03-12-2014 06:40:00 1.8 C 5.32 g/m*3 1.8 C 0 km/h
1439 03-12-2014 06:45:00 1.8 C 5.32 g/m*3 1.8 C 0 km/h
1440 03-12-2014 06:50:00 1.8 C 5.32 g/m*3 1.8 C 0 km/h
1441 03-12-2014 06:55:00 1.8 C 5.32 g/m*3 1.8 C 0 km/h
1442 03-12-2014 07:00:00 1.9 C 5.35 g/m*3 1.9 C 0 km/h
1443 03-12-2014 07:05:00 1.9 C 5.35 g/m*3 1.9 C 0 km/h
1444 03-12-2014 07:10:00 1.9 C 5.35 g/m*3 1.9 C 0 km/h
1445 03-12-2014 07:15:00 1.9 C 5.35 g/m*3 1.9 C 0 km/h
1446 03-12-2014 07:20:00 1.9 C 5.35 g/m*3 1.9 C 0 km/h
1447 03-12-2014 07:25:00 1.9 C 5.35 g/m*3 1.9 C 0 km/h
1448 03-12-2014 07:30:00 2 C 5.39 g/m*3 2 C 0 km/h
1449 03-12-2014 07:35:00 2 C 5.39 g/m*3 2 C 0 km/h
1450 03-12-2014 07:40:00 2 C 5.39 g/m*3 2 C 0 km/h
Sensor: Nr:Datum:Temp:Abs-Feuchte:Windchill:Wind:
Aussen-T/F 1451 03-12-2014 07:45:00 2 C 5.39 g/m*3 2 C 0 km/h
1452 03-12-2014 07:50:00 2.1 C 5.43 g/m*3 2.1 C 0 km/h
1453 03-12-2014 07:55:00 2.1 C 5.43 g/m*3 2.1 C 0 km/h
1454 03-12-2014 08:00:00 2 C 5.39 g/m*3 2 C 0 km/h
1455 03-12-2014 08:05:00 2.1 C 5.43 g/m*3 2.1 C 0 km/h
1456 03-12-2014 08:10:00 2.1 C 5.43 g/m*3 2.1 C 0 km/h
1457 03-12-2014 08:15:00 2.1 C 5.43 g/m*3 2.1 C 0 km/h
1458 03-12-2014 08:20:00 2.1 C 5.43 g/m*3 2.1 C 0 km/h
1459 03-12-2014 08:25:00 2.1 C 5.43 g/m*3 2.1 C 0 km/h
1460 03-12-2014 08:30:00 2 C 5.39 g/m*3 2 C 0 km/h
1461 03-12-2014 08:35:00 2 C 5.39 g/m*3 2 C 0 km/h
1462 03-12-2014 08:40:00 2 C 5.39 g/m*3 2 C 0 km/h
1463 03-12-2014 08:45:00 1.9 C 5.35 g/m*3 1.9 C 0 km/h
1464 03-12-2014 08:50:00 1.9 C 5.35 g/m*3 1.9 C 0 km/h
1465 03-12-2014 08:55:00 1.9 C 5.35 g/m*3 1.9 C 0 km/h
1466 03-12-2014 09:00:00 1.9 C 5.35 g/m*3 1.9 C 0 km/h
1467 03-12-2014 09:05:00 1.9 C 5.35 g/m*3 1.9 C 0 km/h
1468 03-12-2014 09:10:00 1.9 C 5.35 g/m*3 1.9 C 0 km/h
1469 03-12-2014 09:15:00 1.8 C 5.32 g/m*3 1.8 C 0 km/h
1470 03-12-2014 09:20:00 1.8 C 5.32 g/m*3 1.8 C 1.6 km/h
1471 03-12-2014 09:25:00 1.8 C 5.32 g/m*3 1.8 C 0 km/h
1472 03-12-2014 09:30:00 1.8 C 5.32 g/m*3 1.8 C 0 km/h
1473 03-12-2014 09:35:00 1.8 C 5.32 g/m*3 1.8 C 0 km/h
1474 03-12-2014 09:40:00 1.8 C 5.32 g/m*3 1.8 C 0 km/h
1475 03-12-2014 09:45:00 1.8 C 5.32 g/m*3 1.8 C 0 km/h
Sensor: Nr:Datum:Temp:Abs-Feuchte:Windchill:Wind:
Aussen-T/F 1476 03-12-2014 09:50:00 1.9 C 5.35 g/m*3 1.9 C 0 km/h
1477 03-12-2014 09:55:00 1.9 C 5.35 g/m*3 1.9 C 0 km/h
1478 03-12-2014 10:00:00 1.9 C 5.35 g/m*3 1.9 C 0 km/h
1479 03-12-2014 10:05:00 2 C 5.39 g/m*3 2 C 0 km/h
1480 03-12-2014 10:10:00 2 C 5.39 g/m*3 2 C 0 km/h
1481 03-12-2014 10:15:00 2 C 5.39 g/m*3 2 C 0 km/h
1482 03-12-2014 10:20:00 2 C 5.39 g/m*3 2 C 0 km/h
1483 03-12-2014 10:25:00 1.9 C 5.35 g/m*3 1.9 C 1.6 km/h
1484 03-12-2014 10:30:00 1.9 C 5.35 g/m*3 1.9 C 0 km/h
1485 03-12-2014 10:35:00 1.9 C 5.35 g/m*3 1.9 C 1.6 km/h
1486 03-12-2014 10:40:00 2.1 C 5.43 g/m*3 2.1 C 1.6 km/h
1487 03-12-2014 10:45:00 2.1 C 5.43 g/m*3 2.1 C 1.6 km/h
1488 03-12-2014 10:50:00 2.1 C 5.37 g/m*3 2.1 C 1.6 km/h
1489 03-12-2014 10:55:00 2.1 C 5.37 g/m*3 2.1 C 0 km/h
1490 03-12-2014 11:00:00 2.1 C 5.37 g/m*3 2.1 C 0 km/h
1491 03-12-2014 11:05:00 2.1 C 5.37 g/m*3 2.1 C 3.2 km/h
1492 03-12-2014 11:10:00 2.2 C 5.41 g/m*3 2.2 C 4.8 km/h
1493 03-12-2014 11:15:00 2.3 C 5.44 g/m*3 2.3 C 4.8 km/h
1494 03-12-2014 11:20:00 2.3 C 5.44 g/m*3 2.3 C 3.2 km/h
1495 03-12-2014 11:25:00 2.3 C 5.44 g/m*3 2.3 C 4.8 km/h
1496 03-12-2014 11:30:00 2.3 C 5.44 g/m*3 2.3 C 4.8 km/h
1497 03-12-2014 12:15:00 2.6 C 5.32 g/m*3 2.6 C 0 km/h
1498 03-12-2014 12:20:00 2.5 C 5.35 g/m*3 2.5 C 0 km/h
1499 03-12-2014 12:25:00 2.6 C 5.38 g/m*3 2.6 C 0 km/h
1500 03-12-2014 12:30:00 2.6 C 5.38 g/m*3 2.6 C 0 km/h
Sensor: Nr:Datum:Temp:Abs-Feuchte:Windchill:Wind:
Aussen-T/F 1501 03-12-2014 12:35:00 2.5 C 5.35 g/m*3 2.5 C 0 km/h
1502 03-12-2014 12:40:00 2.5 C 5.35 g/m*3 2.5 C 3.2 km/h
1503 03-12-2014 12:45:00 2.5 C 5.35 g/m*3 2.5 C 1.6 km/h
1504 03-12-2014 12:50:00 2.5 C 5.35 g/m*3 2.5 C 1.6 km/h
1505 03-12-2014 16:05:00 2.2 C 5.13 g/m*3 2.2 C 0 km/h
1506 03-12-2014 16:10:00 2.1 C 5.09 g/m*3 2.1 C 1.6 km/h
1507 03-12-2014 16:15:00 2.1 C 5.09 g/m*3 2.1 C 4.8 km/h
1508 03-12-2014 16:20:00 2.1 C 5.09 g/m*3 2.1 C 4.8 km/h
1509 03-12-2014 16:25:00 2.1 C 5.09 g/m*3 2.1 C 0 km/h
1510 03-12-2014 16:30:00 2.1 C 5.09 g/m*3 2.1 C 0 km/h
1511 03-12-2014 16:35:00 2.1 C 5.09 g/m*3 2.1 C 0 km/h
1512 03-12-2014 16:40:00 2.1 C 5.09 g/m*3 2.1 C 0 km/h
1513 03-12-2014 16:45:00 2.1 C 5.09 g/m*3 2.1 C 0 km/h
1514 03-12-2014 16:50:00 2.1 C 5.09 g/m*3 2.1 C 0 km/h
1515 03-12-2014 16:55:00 2 C 5.11 g/m*3 2 C 0 km/h
1516 03-12-2014 17:00:00 2 C 5.11 g/m*3 2 C 0 km/h
1517 03-12-2014 17:05:00 2 C 5.11 g/m*3 2 C 0 km/h
1518 03-12-2014 17:10:00 1.9 C 5.08 g/m*3 1.9 C 0 km/h
1519 03-12-2014 17:15:00 1.9 C 5.02 g/m*3 1.9 C 1.6 km/h
1520 03-12-2014 17:20:00 1.9 C 5.02 g/m*3 1.9 C 1.6 km/h
1521 03-12-2014 18:15:00 1.9 C 4.91 g/m*3 1.9 C 1.6 km/h
1522 03-12-2014 18:20:00 1.9 C 4.97 g/m*3 1.9 C 0 km/h
1523 03-12-2014 18:25:00 1.9 C 4.91 g/m*3 1.9 C 3.2 km/h
1524 03-12-2014 18:30:00 1.9 C 4.91 g/m*3 1.9 C 1.6 km/h
1525 03-12-2014 18:35:00 1.9 C 4.91 g/m*3 1.9 C 0 km/h
Sensor: Nr:Datum:Temp:Abs-Feuchte:Windchill:Wind:
Aussen-T/F 1526 03-12-2014 18:40:00 1.8 C 4.88 g/m*3 1.8 C 1.6 km/h
1527 03-12-2014 18:45:00 1.8 C 4.88 g/m*3 1.8 C 0 km/h
1528 03-12-2014 18:50:00 1.8 C 4.88 g/m*3 1.8 C 1.6 km/h
1529 03-12-2014 18:55:00 1.8 C 4.93 g/m*3 1.8 C 3.2 km/h
1530 03-12-2014 19:00:00 1.8 C 4.93 g/m*3 1.8 C 0 km/h
1531 03-12-2014 19:05:00 1.8 C 4.93 g/m*3 1.8 C 0 km/h
1532 03-12-2014 19:10:00 1.8 C 4.93 g/m*3 1.8 C 3.2 km/h
1533 03-12-2014 19:15:00 1.7 C 4.85 g/m*3 1.7 C 1.6 km/h
1534 03-12-2014 19:20:00 1.7 C 4.85 g/m*3 1.7 C 1.6 km/h
1535 03-12-2014 19:25:00 1.7 C 4.9 g/m*3 1.7 C 1.6 km/h
1536 03-12-2014 19:30:00 1.7 C 4.85 g/m*3 1.7 C 0 km/h
1537 03-12-2014 19:35:00 1.7 C 4.9 g/m*3 1.7 C 3.2 km/h
1538 03-12-2014 19:40:00 1.7 C 4.85 g/m*3 1.7 C 3.2 km/h
1539 03-12-2014 19:45:00 1.7 C 4.85 g/m*3 1.7 C 1.6 km/h
1540 03-12-2014 19:50:00 1.7 C 4.85 g/m*3 1.7 C 0 km/h
1541 03-12-2014 19:55:00 1.7 C 4.79 g/m*3 1.7 C 1.6 km/h
1542 03-12-2014 20:00:00 1.7 C 4.79 g/m*3 -0.22 C 6.4 km/h
1543 03-12-2014 20:05:00 1.7 C 4.79 g/m*3 1.7 C 3.2 km/h
1544 03-12-2014 20:10:00 1.7 C 4.79 g/m*3 1.7 C 1.6 km/h
1545 03-12-2014 20:15:00 1.7 C 4.74 g/m*3 -0.22 C 6.4 km/h
1546 03-12-2014 20:20:00 1.7 C 4.79 g/m*3 1.7 C 3.2 km/h
1547 03-12-2014 20:25:00 1.7 C 4.79 g/m*3 1.7 C 3.2 km/h
1548 03-12-2014 20:30:00 1.7 C 4.79 g/m*3 1.7 C 3.2 km/h
1549 03-12-2014 20:35:00 1.7 C 4.79 g/m*3 1.7 C 3.2 km/h
1550 03-12-2014 20:40:00 1.7 C 4.74 g/m*3 1.7 C 3.2 km/h
Sensor: Nr:Datum:Temp:Abs-Feuchte:Windchill:Wind:
Aussen-T/F 1551 03-12-2014 20:45:00 1.7 C 4.79 g/m*3 1.7 C 3.2 km/h
1552 03-12-2014 20:50:00 1.7 C 4.79 g/m*3 1.7 C 0 km/h
1553 03-12-2014 20:55:00 1.7 C 4.85 g/m*3 1.7 C 0 km/h
1554 03-12-2014 21:00:00 1.6 C 4.81 g/m*3 1.6 C 0 km/h
1555 03-12-2014 21:05:00 1.6 C 4.81 g/m*3 1.6 C 0 km/h
1556 03-12-2014 21:10:00 1.6 C 4.81 g/m*3 1.6 C 0 km/h
1557 03-12-2014 21:15:00 1.6 C 4.81 g/m*3 1.6 C 0 km/h
1558 03-12-2014 21:20:00 1.6 C 4.81 g/m*3 1.6 C 0 km/h
1559 03-12-2014 21:25:00 1.6 C 4.87 g/m*3 1.6 C 0 km/h
1560 03-12-2014 21:30:00 1.6 C 4.87 g/m*3 1.6 C 0 km/h
1561 03-12-2014 21:35:00 1.6 C 4.87 g/m*3 1.6 C 0 km/h
1562 03-12-2014 21:40:00 1.6 C 4.87 g/m*3 1.6 C 0 km/h
1563 03-12-2014 21:45:00 1.5 C 4.83 g/m*3 1.5 C 0 km/h
1564 03-12-2014 21:50:00 1.5 C 4.83 g/m*3 1.5 C 0 km/h
1565 03-12-2014 21:55:00 1.5 C 4.89 g/m*3 1.5 C 1.6 km/h
1566 03-12-2014 22:00:00 1.5 C 4.83 g/m*3 1.5 C 0 km/h
1567 03-12-2014 22:05:00 1.5 C 4.83 g/m*3 1.5 C 0 km/h
1568 03-12-2014 22:10:00 1.5 C 4.83 g/m*3 1.5 C 1.6 km/h
1569 03-12-2014 22:15:00 1.5 C 4.83 g/m*3 1.5 C 0 km/h
1570 03-12-2014 22:20:00 1.5 C 4.83 g/m*3 1.5 C 0 km/h
1571 03-12-2014 22:25:00 1.5 C 4.83 g/m*3 1.5 C 0 km/h
1572 03-12-2014 22:30:00 1.5 C 4.83 g/m*3 1.5 C 0 km/h
1573 03-12-2014 22:35:00 1.6 C 4.87 g/m*3 1.6 C 0 km/h
1574 03-12-2014 22:40:00 1.6 C 4.87 g/m*3 1.6 C 0 km/h
1575 03-12-2014 22:45:00 1.6 C 4.87 g/m*3 1.6 C 0 km/h
Sensor: Nr:Datum:Temp:Abs-Feuchte:Windchill:Wind:
Aussen-T/F 1576 03-12-2014 22:50:00 1.6 C 4.87 g/m*3 1.6 C 0 km/h
1577 03-12-2014 22:55:00 1.6 C 4.87 g/m*3 1.6 C 0 km/h
1578 03-12-2014 23:00:00 1.6 C 4.87 g/m*3 1.6 C 0 km/h
1579 03-12-2014 23:05:00 1.6 C 4.87 g/m*3 1.6 C 0 km/h
1580 03-12-2014 23:10:00 1.6 C 4.87 g/m*3 1.6 C 1.6 km/h
1581 03-12-2014 23:15:00 1.5 C 4.83 g/m*3 1.5 C 0 km/h
1582 03-12-2014 23:20:00 1.6 C 4.81 g/m*3 1.6 C 0 km/h
1583 03-12-2014 23:25:00 1.5 C 4.78 g/m*3 1.5 C 0 km/h
1584 03-12-2014 23:30:00 1.5 C 4.78 g/m*3 1.5 C 3.2 km/h
1585 03-12-2014 23:35:00 1.6 C 4.81 g/m*3 1.6 C 1.6 km/h
1586 03-12-2014 23:40:00 1.6 C 4.81 g/m*3 1.6 C 3.2 km/h
1587 03-12-2014 23:45:00 1.6 C 4.81 g/m*3 1.6 C 4.8 km/h
1588 03-12-2014 23:50:00 1.6 C 4.81 g/m*3 1.6 C 0 km/h
1589 03-12-2014 23:55:00 1.6 C 4.81 g/m*3 1.6 C 1.6 km/h

Legende:
   Min
   Max


Maximal/Minimal-Werte vom 28.11.2014 - 03.12.2014

Sensor Min Max Avg
Temp
(Aussen-T/F)
1.1 °C
02-12-2014  21:50:00
6.5 °C
28-11-2014  12:10:00
3.44 °C
Abs-Feuchte
(Aussen-T/F)
4.74 g/m*3
03-12-2014  20:15:00
7.5 g/m*3
28-11-2014  12:10:00
5.62 g/m*3
Windchill
(Aussen-T/F)
-0.54 C
01-12-2014  23:45:00
6.5 C
28-11-2014  12:15:00
3.14 C

Die Daten stammen von einer Davis Vantage Pro 2 Wetter-Station und werden unter Linux mit der Software wview2wettercgi und aufbereitet. Alle Angaben erfolgen ohne Gewähr für ihre Vollständigkeit oder Richtigkeit.
Kontakt: Rainer Krienke krienke@uni-koblenz.de . Meine Webseiten an der Uni Koblenz oder privat.
Version: $Revision: 0.78 $